<?xml version="1.0" encoding="UTF-8" standalone="no" ?>
<gpx xmlns="http://www.topografix.com/GPX/1/1" xmlns:xsi="http://www.w3.org/2001/XMLSchema-instance" xsi:schemaLocation="http://www.topografix.com/GPX/1/1 http://www.topografix.com/GPX/1/1/gpx.xsd" version="1.1" creator="VisuGPX - https://www.visugpx.com">
  <metadata>
    <name>Landisaq 22</name>
  </metadata>
  <trk>
    <name><![CDATA[Landisaq 22_1]]></name>
    <trkseg>
      <trkpt lat="48.75042" lon="-0.57306">
        <ele>145.2</ele>
        <time>2014-05-13T07:36:06Z</time>
      </trkpt>
      <trkpt lat="48.75055" lon="-0.57317">
        <ele>145.2</ele>
        <time>2014-05-13T07:36:09Z</time>
      </trkpt>
      <trkpt lat="48.75059" lon="-0.5732">
        <ele>145.2</ele>
        <time>2014-05-13T07:36:10Z</time>
      </trkpt>
      <trkpt lat="48.75083" lon="-0.57338">
        <ele>145.2</ele>
        <time>2014-05-13T07:36:16Z</time>
      </trkpt>
      <trkpt lat="48.75087" lon="-0.57341">
        <ele>145.2</ele>
        <time>2014-05-13T07:36:17Z</time>
      </trkpt>
      <trkpt lat="48.75163" lon="-0.57406">
        <ele>143.8</ele>
        <time>2014-05-13T07:36:34Z</time>
      </trkpt>
      <trkpt lat="48.75221" lon="-0.57461">
        <ele>143.4</ele>
        <time>2014-05-13T07:36:49Z</time>
      </trkpt>
      <trkpt lat="48.75234" lon="-0.57479">
        <ele>143.6</ele>
        <time>2014-05-13T07:36:56Z</time>
      </trkpt>
      <trkpt lat="48.75234" lon="-0.57484">
        <ele>143.6</ele>
        <time>2014-05-13T07:36:57Z</time>
      </trkpt>
      <trkpt lat="48.75234" lon="-0.5749">
        <ele>143.6</ele>
        <time>2014-05-13T07:36:58Z</time>
      </trkpt>
      <trkpt lat="48.75233" lon="-0.57497">
        <ele>143.6</ele>
        <time>2014-05-13T07:36:59Z</time>
      </trkpt>
      <trkpt lat="48.75232" lon="-0.57503">
        <ele>143.4</ele>
        <time>2014-05-13T07:37:00Z</time>
      </trkpt>
      <trkpt lat="48.75231" lon="-0.57509">
        <ele>143.4</ele>
        <time>2014-05-13T07:37:01Z</time>
      </trkpt>
      <trkpt lat="48.7523" lon="-0.57516">
        <ele>143.4</ele>
        <time>2014-05-13T07:37:02Z</time>
      </trkpt>
      <trkpt lat="48.75209" lon="-0.57672">
        <ele>140.8</ele>
        <time>2014-05-13T07:37:24Z</time>
      </trkpt>
      <trkpt lat="48.75189" lon="-0.57823">
        <ele>141.2</ele>
        <time>2014-05-13T07:37:46Z</time>
      </trkpt>
      <trkpt lat="48.75182" lon="-0.57884">
        <ele>141.6</ele>
        <time>2014-05-13T07:37:55Z</time>
      </trkpt>
      <trkpt lat="48.75184" lon="-0.5789">
        <ele>141.8</ele>
        <time>2014-05-13T07:37:56Z</time>
      </trkpt>
      <trkpt lat="48.75186" lon="-0.57896">
        <ele>141.8</ele>
        <time>2014-05-13T07:37:57Z</time>
      </trkpt>
      <trkpt lat="48.7519" lon="-0.579">
        <ele>141.8</ele>
        <time>2014-05-13T07:37:58Z</time>
      </trkpt>
      <trkpt lat="48.75193" lon="-0.57905">
        <ele>142</ele>
        <time>2014-05-13T07:37:59Z</time>
      </trkpt>
      <trkpt lat="48.75241" lon="-0.57973">
        <ele>145.4</ele>
        <time>2014-05-13T07:38:15Z</time>
      </trkpt>
      <trkpt lat="48.75283" lon="-0.58033">
        <ele>147.6</ele>
        <time>2014-05-13T07:38:33Z</time>
      </trkpt>
      <trkpt lat="48.75323" lon="-0.58101">
        <ele>149</ele>
        <time>2014-05-13T07:38:50Z</time>
      </trkpt>
      <trkpt lat="48.75349" lon="-0.5814">
        <ele>150.6</ele>
        <time>2014-05-13T07:39:04Z</time>
      </trkpt>
      <trkpt lat="48.75384" lon="-0.58195">
        <ele>151.4</ele>
        <time>2014-05-13T07:39:23Z</time>
      </trkpt>
      <trkpt lat="48.75397" lon="-0.58225">
        <ele>152.2</ele>
        <time>2014-05-13T07:39:32Z</time>
      </trkpt>
      <trkpt lat="48.75431" lon="-0.58287">
        <ele>152.6</ele>
        <time>2014-05-13T07:39:49Z</time>
      </trkpt>
      <trkpt lat="48.75471" lon="-0.58359">
        <ele>152.6</ele>
        <time>2014-05-13T07:40:07Z</time>
      </trkpt>
      <trkpt lat="48.75534" lon="-0.58449">
        <ele>150.6</ele>
        <time>2014-05-13T07:40:27Z</time>
      </trkpt>
      <trkpt lat="48.75587" lon="-0.58498">
        <ele>147.8</ele>
        <time>2014-05-13T07:40:41Z</time>
      </trkpt>
      <trkpt lat="48.75629" lon="-0.58509">
        <ele>145.2</ele>
        <time>2014-05-13T07:40:52Z</time>
      </trkpt>
      <trkpt lat="48.75668" lon="-0.5852">
        <ele>142.8</ele>
        <time>2014-05-13T07:41:04Z</time>
      </trkpt>
      <trkpt lat="48.75669" lon="-0.58522">
        <ele>142.8</ele>
        <time>2014-05-13T07:41:05Z</time>
      </trkpt>
      <trkpt lat="48.7567" lon="-0.58524">
        <ele>142.8</ele>
        <time>2014-05-13T07:41:06Z</time>
      </trkpt>
      <trkpt lat="48.75671" lon="-0.58525">
        <ele>142.8</ele>
        <time>2014-05-13T07:41:07Z</time>
      </trkpt>
      <trkpt lat="48.75673" lon="-0.58527">
        <ele>142.8</ele>
        <time>2014-05-13T07:41:08Z</time>
      </trkpt>
      <trkpt lat="48.75697" lon="-0.58543">
        <ele>143</ele>
        <time>2014-05-13T07:41:19Z</time>
      </trkpt>
      <trkpt lat="48.75727" lon="-0.58554">
        <ele>146.2</ele>
        <time>2014-05-13T07:41:30Z</time>
      </trkpt>
      <trkpt lat="48.75768" lon="-0.58567">
        <ele>148.2</ele>
        <time>2014-05-13T07:41:43Z</time>
      </trkpt>
      <trkpt lat="48.75822" lon="-0.58586">
        <ele>148.8</ele>
        <time>2014-05-13T07:42:02Z</time>
      </trkpt>
      <trkpt lat="48.75825" lon="-0.58585">
        <ele>148.8</ele>
        <time>2014-05-13T07:42:05Z</time>
      </trkpt>
      <trkpt lat="48.75838" lon="-0.5859">
        <ele>149</ele>
        <time>2014-05-13T07:42:12Z</time>
      </trkpt>
      <trkpt lat="48.75886" lon="-0.58605">
        <ele>150</ele>
        <time>2014-05-13T07:42:28Z</time>
      </trkpt>
      <trkpt lat="48.75933" lon="-0.58618">
        <ele>150.8</ele>
        <time>2014-05-13T07:42:43Z</time>
      </trkpt>
      <trkpt lat="48.75986" lon="-0.58633">
        <ele>151.8</ele>
        <time>2014-05-13T07:43:00Z</time>
      </trkpt>
      <trkpt lat="48.76043" lon="-0.58644">
        <ele>153</ele>
        <time>2014-05-13T07:43:18Z</time>
      </trkpt>
      <trkpt lat="48.76071" lon="-0.58663">
        <ele>153.4</ele>
        <time>2014-05-13T07:43:29Z</time>
      </trkpt>
      <trkpt lat="48.76071" lon="-0.58667">
        <ele>153.4</ele>
        <time>2014-05-13T07:43:30Z</time>
      </trkpt>
      <trkpt lat="48.76061" lon="-0.58729">
        <ele>153.6</ele>
        <time>2014-05-13T07:43:44Z</time>
      </trkpt>
      <trkpt lat="48.76032" lon="-0.5878">
        <ele>153.2</ele>
        <time>2014-05-13T07:43:58Z</time>
      </trkpt>
      <trkpt lat="48.75985" lon="-0.58829">
        <ele>153.4</ele>
        <time>2014-05-13T07:44:15Z</time>
      </trkpt>
      <trkpt lat="48.75978" lon="-0.58877">
        <ele>152.6</ele>
        <time>2014-05-13T07:44:26Z</time>
      </trkpt>
      <trkpt lat="48.75992" lon="-0.58906">
        <ele>152</ele>
        <time>2014-05-13T07:44:31Z</time>
      </trkpt>
      <trkpt lat="48.75994" lon="-0.58913">
        <ele>151.6</ele>
        <time>2014-05-13T07:44:32Z</time>
      </trkpt>
      <trkpt lat="48.75995" lon="-0.5892">
        <ele>151.4</ele>
        <time>2014-05-13T07:44:33Z</time>
      </trkpt>
      <trkpt lat="48.75994" lon="-0.58927">
        <ele>151.2</ele>
        <time>2014-05-13T07:44:34Z</time>
      </trkpt>
      <trkpt lat="48.75993" lon="-0.58934">
        <ele>151</ele>
        <time>2014-05-13T07:44:35Z</time>
      </trkpt>
      <trkpt lat="48.75991" lon="-0.5894">
        <ele>151</ele>
        <time>2014-05-13T07:44:36Z</time>
      </trkpt>
      <trkpt lat="48.75989" lon="-0.58945">
        <ele>150.8</ele>
        <time>2014-05-13T07:44:37Z</time>
      </trkpt>
      <trkpt lat="48.75987" lon="-0.58951">
        <ele>150.8</ele>
        <time>2014-05-13T07:44:38Z</time>
      </trkpt>
      <trkpt lat="48.75985" lon="-0.58955">
        <ele>150.8</ele>
        <time>2014-05-13T07:44:39Z</time>
      </trkpt>
      <trkpt lat="48.75934" lon="-0.59032">
        <ele>152.2</ele>
        <time>2014-05-13T07:44:59Z</time>
      </trkpt>
      <trkpt lat="48.75923" lon="-0.59047">
        <ele>153.4</ele>
        <time>2014-05-13T07:45:04Z</time>
      </trkpt>
      <trkpt lat="48.75923" lon="-0.59051">
        <ele>153.4</ele>
        <time>2014-05-13T07:45:05Z</time>
      </trkpt>
      <trkpt lat="48.75924" lon="-0.59055">
        <ele>153.6</ele>
        <time>2014-05-13T07:45:06Z</time>
      </trkpt>
      <trkpt lat="48.75926" lon="-0.59059">
        <ele>153.8</ele>
        <time>2014-05-13T07:45:07Z</time>
      </trkpt>
      <trkpt lat="48.75928" lon="-0.59062">
        <ele>154</ele>
        <time>2014-05-13T07:45:08Z</time>
      </trkpt>
      <trkpt lat="48.7593" lon="-0.59066">
        <ele>154</ele>
        <time>2014-05-13T07:45:09Z</time>
      </trkpt>
      <trkpt lat="48.75968" lon="-0.59128">
        <ele>153.6</ele>
        <time>2014-05-13T07:45:26Z</time>
      </trkpt>
      <trkpt lat="48.75993" lon="-0.59176">
        <ele>153.6</ele>
        <time>2014-05-13T07:45:37Z</time>
      </trkpt>
      <trkpt lat="48.76004" lon="-0.59198">
        <ele>153.8</ele>
        <time>2014-05-13T07:45:42Z</time>
      </trkpt>
      <trkpt lat="48.76004" lon="-0.59203">
        <ele>153.8</ele>
        <time>2014-05-13T07:45:43Z</time>
      </trkpt>
      <trkpt lat="48.76015" lon="-0.59235">
        <ele>154.6</ele>
        <time>2014-05-13T07:45:54Z</time>
      </trkpt>
      <trkpt lat="48.76048" lon="-0.59299">
        <ele>156.6</ele>
        <time>2014-05-13T07:46:12Z</time>
      </trkpt>
      <trkpt lat="48.76083" lon="-0.5938">
        <ele>158.2</ele>
        <time>2014-05-13T07:46:32Z</time>
      </trkpt>
      <trkpt lat="48.76125" lon="-0.59465">
        <ele>159</ele>
        <time>2014-05-13T07:46:52Z</time>
      </trkpt>
      <trkpt lat="48.76165" lon="-0.59585">
        <ele>156.6</ele>
        <time>2014-05-13T07:47:10Z</time>
      </trkpt>
      <trkpt lat="48.76212" lon="-0.59687">
        <ele>155.8</ele>
        <time>2014-05-13T07:47:28Z</time>
      </trkpt>
      <trkpt lat="48.76238" lon="-0.5972">
        <ele>159</ele>
        <time>2014-05-13T07:47:40Z</time>
      </trkpt>
      <trkpt lat="48.76254" lon="-0.59753">
        <ele>161.8</ele>
        <time>2014-05-13T07:47:52Z</time>
      </trkpt>
      <trkpt lat="48.76265" lon="-0.59793">
        <ele>164</ele>
        <time>2014-05-13T07:48:04Z</time>
      </trkpt>
      <trkpt lat="48.76273" lon="-0.59803">
        <ele>165</ele>
        <time>2014-05-13T07:48:10Z</time>
      </trkpt>
      <trkpt lat="48.76274" lon="-0.59806">
        <ele>165.2</ele>
        <time>2014-05-13T07:48:11Z</time>
      </trkpt>
      <trkpt lat="48.76275" lon="-0.59809">
        <ele>165.2</ele>
        <time>2014-05-13T07:48:12Z</time>
      </trkpt>
      <trkpt lat="48.76276" lon="-0.59813">
        <ele>165.4</ele>
        <time>2014-05-13T07:48:13Z</time>
      </trkpt>
      <trkpt lat="48.76277" lon="-0.59815">
        <ele>165.4</ele>
        <time>2014-05-13T07:48:14Z</time>
      </trkpt>
      <trkpt lat="48.76278" lon="-0.59818">
        <ele>165.6</ele>
        <time>2014-05-13T07:48:15Z</time>
      </trkpt>
      <trkpt lat="48.76284" lon="-0.59837">
        <ele>166.4</ele>
        <time>2014-05-13T07:48:23Z</time>
      </trkpt>
      <trkpt lat="48.76283" lon="-0.5984">
        <ele>166.6</ele>
        <time>2014-05-13T07:48:24Z</time>
      </trkpt>
      <trkpt lat="48.76283" lon="-0.59843">
        <ele>166.6</ele>
        <time>2014-05-13T07:48:25Z</time>
      </trkpt>
      <trkpt lat="48.76283" lon="-0.59846">
        <ele>166.8</ele>
        <time>2014-05-13T07:48:26Z</time>
      </trkpt>
      <trkpt lat="48.76282" lon="-0.5985">
        <ele>166.8</ele>
        <time>2014-05-13T07:48:27Z</time>
      </trkpt>
      <trkpt lat="48.76282" lon="-0.59854">
        <ele>167</ele>
        <time>2014-05-13T07:48:28Z</time>
      </trkpt>
      <trkpt lat="48.76275" lon="-0.59935">
        <ele>168.8</ele>
        <time>2014-05-13T07:48:47Z</time>
      </trkpt>
      <trkpt lat="48.76266" lon="-0.60009">
        <ele>168.8</ele>
        <time>2014-05-13T07:49:02Z</time>
      </trkpt>
      <trkpt lat="48.76257" lon="-0.6009">
        <ele>166.4</ele>
        <time>2014-05-13T07:49:12Z</time>
      </trkpt>
      <trkpt lat="48.76249" lon="-0.60159">
        <ele>163.2</ele>
        <time>2014-05-13T07:49:18Z</time>
      </trkpt>
      <trkpt lat="48.76242" lon="-0.60225">
        <ele>159.8</ele>
        <time>2014-05-13T07:49:23Z</time>
      </trkpt>
      <trkpt lat="48.76238" lon="-0.60283">
        <ele>156.6</ele>
        <time>2014-05-13T07:49:27Z</time>
      </trkpt>
      <trkpt lat="48.7624" lon="-0.60312">
        <ele>155</ele>
        <time>2014-05-13T07:49:29Z</time>
      </trkpt>
      <trkpt lat="48.76243" lon="-0.60326">
        <ele>154.2</ele>
        <time>2014-05-13T07:49:30Z</time>
      </trkpt>
      <trkpt lat="48.76246" lon="-0.6034">
        <ele>153.2</ele>
        <time>2014-05-13T07:49:31Z</time>
      </trkpt>
      <trkpt lat="48.7625" lon="-0.60353">
        <ele>152.4</ele>
        <time>2014-05-13T07:49:32Z</time>
      </trkpt>
      <trkpt lat="48.76255" lon="-0.60366">
        <ele>151</ele>
        <time>2014-05-13T07:49:33Z</time>
      </trkpt>
      <trkpt lat="48.76262" lon="-0.60377">
        <ele>150.4</ele>
        <time>2014-05-13T07:49:34Z</time>
      </trkpt>
      <trkpt lat="48.7627" lon="-0.60385">
        <ele>149.6</ele>
        <time>2014-05-13T07:49:35Z</time>
      </trkpt>
      <trkpt lat="48.76279" lon="-0.60392">
        <ele>149</ele>
        <time>2014-05-13T07:49:36Z</time>
      </trkpt>
      <trkpt lat="48.76288" lon="-0.60398">
        <ele>148.4</ele>
        <time>2014-05-13T07:49:37Z</time>
      </trkpt>
      <trkpt lat="48.76344" lon="-0.60439">
        <ele>145</ele>
        <time>2014-05-13T07:49:44Z</time>
      </trkpt>
      <trkpt lat="48.76395" lon="-0.605">
        <ele>145.6</ele>
        <time>2014-05-13T07:49:55Z</time>
      </trkpt>
      <trkpt lat="48.76407" lon="-0.60511">
        <ele>146.6</ele>
        <time>2014-05-13T07:49:58Z</time>
      </trkpt>
      <trkpt lat="48.7641" lon="-0.60514">
        <ele>147</ele>
        <time>2014-05-13T07:49:59Z</time>
      </trkpt>
      <trkpt lat="48.76441" lon="-0.60525">
        <ele>150</ele>
        <time>2014-05-13T07:50:07Z</time>
      </trkpt>
      <trkpt lat="48.76484" lon="-0.60541">
        <ele>152.6</ele>
        <time>2014-05-13T07:50:18Z</time>
      </trkpt>
      <trkpt lat="48.76546" lon="-0.60616">
        <ele>151.8</ele>
        <time>2014-05-13T07:50:34Z</time>
      </trkpt>
      <trkpt lat="48.76631" lon="-0.60654">
        <ele>152.6</ele>
        <time>2014-05-13T07:50:51Z</time>
      </trkpt>
      <trkpt lat="48.7672" lon="-0.60671">
        <ele>154.6</ele>
        <time>2014-05-13T07:51:09Z</time>
      </trkpt>
      <trkpt lat="48.76801" lon="-0.60689">
        <ele>157</ele>
        <time>2014-05-13T07:51:27Z</time>
      </trkpt>
      <trkpt lat="48.76867" lon="-0.60706">
        <ele>159.6</ele>
        <time>2014-05-13T07:51:44Z</time>
      </trkpt>
      <trkpt lat="48.76869" lon="-0.6071">
        <ele>159.8</ele>
        <time>2014-05-13T07:51:45Z</time>
      </trkpt>
      <trkpt lat="48.76871" lon="-0.60715">
        <ele>160</ele>
        <time>2014-05-13T07:51:46Z</time>
      </trkpt>
      <trkpt lat="48.76871" lon="-0.60721">
        <ele>160.2</ele>
        <time>2014-05-13T07:51:47Z</time>
      </trkpt>
      <trkpt lat="48.7687" lon="-0.60726">
        <ele>160.2</ele>
        <time>2014-05-13T07:51:48Z</time>
      </trkpt>
      <trkpt lat="48.7687" lon="-0.60732">
        <ele>160.2</ele>
        <time>2014-05-13T07:51:49Z</time>
      </trkpt>
      <trkpt lat="48.76864" lon="-0.60784">
        <ele>160.4</ele>
        <time>2014-05-13T07:51:57Z</time>
      </trkpt>
      <trkpt lat="48.76864" lon="-0.60791">
        <ele>160.4</ele>
        <time>2014-05-13T07:51:58Z</time>
      </trkpt>
      <trkpt lat="48.76862" lon="-0.60818">
        <ele>160.4</ele>
        <time>2014-05-13T07:52:02Z</time>
      </trkpt>
      <trkpt lat="48.76862" lon="-0.60825">
        <ele>160.4</ele>
        <time>2014-05-13T07:52:03Z</time>
      </trkpt>
      <trkpt lat="48.76858" lon="-0.60905">
        <ele>161.8</ele>
        <time>2014-05-13T07:52:15Z</time>
      </trkpt>
      <trkpt lat="48.76858" lon="-0.60912">
        <ele>161.8</ele>
        <time>2014-05-13T07:52:16Z</time>
      </trkpt>
      <trkpt lat="48.76858" lon="-0.60953">
        <ele>162.4</ele>
        <time>2014-05-13T07:52:22Z</time>
      </trkpt>
      <trkpt lat="48.76855" lon="-0.61043">
        <ele>165.6</ele>
        <time>2014-05-13T07:52:37Z</time>
      </trkpt>
      <trkpt lat="48.76846" lon="-0.61111">
        <ele>168.4</ele>
        <time>2014-05-13T07:52:51Z</time>
      </trkpt>
      <trkpt lat="48.76839" lon="-0.61174">
        <ele>170.6</ele>
        <time>2014-05-13T07:53:04Z</time>
      </trkpt>
      <trkpt lat="48.7683" lon="-0.61236">
        <ele>172.4</ele>
        <time>2014-05-13T07:53:18Z</time>
      </trkpt>
      <trkpt lat="48.76816" lon="-0.61286">
        <ele>173.2</ele>
        <time>2014-05-13T07:53:32Z</time>
      </trkpt>
      <trkpt lat="48.76799" lon="-0.61339">
        <ele>174.4</ele>
        <time>2014-05-13T07:53:45Z</time>
      </trkpt>
      <trkpt lat="48.76786" lon="-0.61381">
        <ele>175</ele>
        <time>2014-05-13T07:53:56Z</time>
      </trkpt>
      <trkpt lat="48.76777" lon="-0.61428">
        <ele>175.4</ele>
        <time>2014-05-13T07:54:08Z</time>
      </trkpt>
      <trkpt lat="48.76761" lon="-0.61484">
        <ele>175</ele>
        <time>2014-05-13T07:54:19Z</time>
      </trkpt>
      <trkpt lat="48.76738" lon="-0.61545">
        <ele>174.4</ele>
        <time>2014-05-13T07:54:29Z</time>
      </trkpt>
      <trkpt lat="48.76735" lon="-0.61552">
        <ele>174.4</ele>
        <time>2014-05-13T07:54:30Z</time>
      </trkpt>
      <trkpt lat="48.7671" lon="-0.61613">
        <ele>173.4</ele>
        <time>2014-05-13T07:54:41Z</time>
      </trkpt>
      <trkpt lat="48.76709" lon="-0.6162">
        <ele>173.2</ele>
        <time>2014-05-13T07:54:42Z</time>
      </trkpt>
      <trkpt lat="48.76703" lon="-0.6164">
        <ele>173</ele>
        <time>2014-05-13T07:54:45Z</time>
      </trkpt>
      <trkpt lat="48.76674" lon="-0.61733">
        <ele>172.6</ele>
        <time>2014-05-13T07:54:59Z</time>
      </trkpt>
      <trkpt lat="48.76662" lon="-0.61771">
        <ele>172.6</ele>
        <time>2014-05-13T07:55:05Z</time>
      </trkpt>
      <trkpt lat="48.76652" lon="-0.61809">
        <ele>172.8</ele>
        <time>2014-05-13T07:55:12Z</time>
      </trkpt>
      <trkpt lat="48.76644" lon="-0.61833">
        <ele>173</ele>
        <time>2014-05-13T07:55:16Z</time>
      </trkpt>
      <trkpt lat="48.76625" lon="-0.61907">
        <ele>173.4</ele>
        <time>2014-05-13T07:55:27Z</time>
      </trkpt>
      <trkpt lat="48.76622" lon="-0.61913">
        <ele>173.4</ele>
        <time>2014-05-13T07:55:28Z</time>
      </trkpt>
      <trkpt lat="48.76619" lon="-0.61918">
        <ele>173.4</ele>
        <time>2014-05-13T07:55:29Z</time>
      </trkpt>
      <trkpt lat="48.76616" lon="-0.61923">
        <ele>173.6</ele>
        <time>2014-05-13T07:55:30Z</time>
      </trkpt>
      <trkpt lat="48.76612" lon="-0.61928">
        <ele>173.6</ele>
        <time>2014-05-13T07:55:31Z</time>
      </trkpt>
      <trkpt lat="48.76609" lon="-0.61931">
        <ele>173.8</ele>
        <time>2014-05-13T07:55:32Z</time>
      </trkpt>
      <trkpt lat="48.76605" lon="-0.61935">
        <ele>173.8</ele>
        <time>2014-05-13T07:55:33Z</time>
      </trkpt>
      <trkpt lat="48.76574" lon="-0.61958">
        <ele>174.6</ele>
        <time>2014-05-13T07:55:43Z</time>
      </trkpt>
      <trkpt lat="48.76545" lon="-0.61979">
        <ele>175.2</ele>
        <time>2014-05-13T07:55:53Z</time>
      </trkpt>
      <trkpt lat="48.76542" lon="-0.61984">
        <ele>175.2</ele>
        <time>2014-05-13T07:55:55Z</time>
      </trkpt>
      <trkpt lat="48.76541" lon="-0.61986">
        <ele>175.2</ele>
        <time>2014-05-13T07:55:56Z</time>
      </trkpt>
      <trkpt lat="48.76539" lon="-0.61988">
        <ele>175.2</ele>
        <time>2014-05-13T07:55:57Z</time>
      </trkpt>
      <trkpt lat="48.7651" lon="-0.62008">
        <ele>175.4</ele>
        <time>2014-05-13T07:56:09Z</time>
      </trkpt>
      <trkpt lat="48.76474" lon="-0.62048">
        <ele>175.8</ele>
        <time>2014-05-13T07:56:21Z</time>
      </trkpt>
      <trkpt lat="48.76447" lon="-0.62085">
        <ele>176.4</ele>
        <time>2014-05-13T07:56:29Z</time>
      </trkpt>
      <trkpt lat="48.76426" lon="-0.62122">
        <ele>177.2</ele>
        <time>2014-05-13T07:56:39Z</time>
      </trkpt>
      <trkpt lat="48.76403" lon="-0.62161">
        <ele>178.8</ele>
        <time>2014-05-13T07:56:52Z</time>
      </trkpt>
      <trkpt lat="48.76382" lon="-0.6219">
        <ele>180.4</ele>
        <time>2014-05-13T07:57:03Z</time>
      </trkpt>
      <trkpt lat="48.76379" lon="-0.62189">
        <ele>180.8</ele>
        <time>2014-05-13T07:57:04Z</time>
      </trkpt>
      <trkpt lat="48.76377" lon="-0.62187">
        <ele>181</ele>
        <time>2014-05-13T07:57:05Z</time>
      </trkpt>
      <trkpt lat="48.76375" lon="-0.62184">
        <ele>181.2</ele>
        <time>2014-05-13T07:57:06Z</time>
      </trkpt>
      <trkpt lat="48.76373" lon="-0.62182">
        <ele>181.2</ele>
        <time>2014-05-13T07:57:07Z</time>
      </trkpt>
      <trkpt lat="48.76372" lon="-0.62179">
        <ele>181.4</ele>
        <time>2014-05-13T07:57:08Z</time>
      </trkpt>
      <trkpt lat="48.7637" lon="-0.62177">
        <ele>181.4</ele>
        <time>2014-05-13T07:57:09Z</time>
      </trkpt>
      <trkpt lat="48.76367" lon="-0.62175">
        <ele>181.4</ele>
        <time>2014-05-13T07:57:10Z</time>
      </trkpt>
      <trkpt lat="48.76365" lon="-0.62173">
        <ele>181.4</ele>
        <time>2014-05-13T07:57:11Z</time>
      </trkpt>
      <trkpt lat="48.76363" lon="-0.62172">
        <ele>181.4</ele>
        <time>2014-05-13T07:57:12Z</time>
      </trkpt>
      <trkpt lat="48.7636" lon="-0.6217">
        <ele>181.4</ele>
        <time>2014-05-13T07:57:13Z</time>
      </trkpt>
      <trkpt lat="48.76358" lon="-0.62168">
        <ele>181.4</ele>
        <time>2014-05-13T07:57:14Z</time>
      </trkpt>
      <trkpt lat="48.76355" lon="-0.62165">
        <ele>181.4</ele>
        <time>2014-05-13T07:57:15Z</time>
      </trkpt>
      <trkpt lat="48.76343" lon="-0.62151">
        <ele>181.2</ele>
        <time>2014-05-13T07:57:19Z</time>
      </trkpt>
      <trkpt lat="48.76281" lon="-0.62091">
        <ele>178.4</ele>
        <time>2014-05-13T07:57:34Z</time>
      </trkpt>
      <trkpt lat="48.76268" lon="-0.62083">
        <ele>178</ele>
        <time>2014-05-13T07:57:37Z</time>
      </trkpt>
      <trkpt lat="48.76263" lon="-0.62082">
        <ele>177.8</ele>
        <time>2014-05-13T07:57:38Z</time>
      </trkpt>
      <trkpt lat="48.76258" lon="-0.62082">
        <ele>177.6</ele>
        <time>2014-05-13T07:57:39Z</time>
      </trkpt>
      <trkpt lat="48.76253" lon="-0.62083">
        <ele>177.4</ele>
        <time>2014-05-13T07:57:40Z</time>
      </trkpt>
      <trkpt lat="48.76248" lon="-0.62085">
        <ele>177.4</ele>
        <time>2014-05-13T07:57:41Z</time>
      </trkpt>
      <trkpt lat="48.76243" lon="-0.62087">
        <ele>177.2</ele>
        <time>2014-05-13T07:57:42Z</time>
      </trkpt>
      <trkpt lat="48.76238" lon="-0.6209">
        <ele>177.2</ele>
        <time>2014-05-13T07:57:43Z</time>
      </trkpt>
      <trkpt lat="48.76234" lon="-0.62094">
        <ele>177.2</ele>
        <time>2014-05-13T07:57:44Z</time>
      </trkpt>
      <trkpt lat="48.7623" lon="-0.62098">
        <ele>177.2</ele>
        <time>2014-05-13T07:57:45Z</time>
      </trkpt>
      <trkpt lat="48.76164" lon="-0.62169">
        <ele>177.2</ele>
        <time>2014-05-13T07:58:02Z</time>
      </trkpt>
      <trkpt lat="48.76129" lon="-0.62203">
        <ele>176.6</ele>
        <time>2014-05-13T07:58:10Z</time>
      </trkpt>
      <trkpt lat="48.76124" lon="-0.62205">
        <ele>176.6</ele>
        <time>2014-05-13T07:58:11Z</time>
      </trkpt>
      <trkpt lat="48.76119" lon="-0.62207">
        <ele>176.4</ele>
        <time>2014-05-13T07:58:12Z</time>
      </trkpt>
      <trkpt lat="48.76108" lon="-0.6221">
        <ele>176.2</ele>
        <time>2014-05-13T07:58:14Z</time>
      </trkpt>
      <trkpt lat="48.7603" lon="-0.62194">
        <ele>176.8</ele>
        <time>2014-05-13T07:58:30Z</time>
      </trkpt>
      <trkpt lat="48.75995" lon="-0.62189">
        <ele>177.8</ele>
        <time>2014-05-13T07:58:40Z</time>
      </trkpt>
      <trkpt lat="48.75993" lon="-0.62194">
        <ele>177.8</ele>
        <time>2014-05-13T07:58:41Z</time>
      </trkpt>
      <trkpt lat="48.75972" lon="-0.62292">
        <ele>180.2</ele>
        <time>2014-05-13T07:58:59Z</time>
      </trkpt>
      <trkpt lat="48.75954" lon="-0.6237">
        <ele>183.2</ele>
        <time>2014-05-13T07:59:13Z</time>
      </trkpt>
      <trkpt lat="48.7594" lon="-0.62454">
        <ele>186.4</ele>
        <time>2014-05-13T07:59:27Z</time>
      </trkpt>
      <trkpt lat="48.75935" lon="-0.6252">
        <ele>189.6</ele>
        <time>2014-05-13T07:59:41Z</time>
      </trkpt>
      <trkpt lat="48.75933" lon="-0.62547">
        <ele>191</ele>
        <time>2014-05-13T07:59:48Z</time>
      </trkpt>
      <trkpt lat="48.75907" lon="-0.62564">
        <ele>192.4</ele>
        <time>2014-05-13T08:00:01Z</time>
      </trkpt>
      <trkpt lat="48.75878" lon="-0.62565">
        <ele>191.8</ele>
        <time>2014-05-13T08:00:14Z</time>
      </trkpt>
      <trkpt lat="48.75874" lon="-0.62568">
        <ele>192</ele>
        <time>2014-05-13T08:00:21Z</time>
      </trkpt>
      <trkpt lat="48.75875" lon="-0.62579">
        <ele>192.2</ele>
        <time>2014-05-13T08:01:23Z</time>
      </trkpt>
      <trkpt lat="48.75877" lon="-0.62588">
        <ele>192.6</ele>
        <time>2014-05-13T08:01:26Z</time>
      </trkpt>
      <trkpt lat="48.7588" lon="-0.62612">
        <ele>193</ele>
        <time>2014-05-13T08:01:32Z</time>
      </trkpt>
      <trkpt lat="48.75893" lon="-0.6266">
        <ele>195.4</ele>
        <time>2014-05-13T08:01:45Z</time>
      </trkpt>
      <trkpt lat="48.75898" lon="-0.62702">
        <ele>197.4</ele>
        <time>2014-05-13T08:01:55Z</time>
      </trkpt>
      <trkpt lat="48.75899" lon="-0.62752">
        <ele>199.4</ele>
        <time>2014-05-13T08:02:06Z</time>
      </trkpt>
      <trkpt lat="48.759" lon="-0.6278">
        <ele>199.8</ele>
        <time>2014-05-13T08:02:12Z</time>
      </trkpt>
      <trkpt lat="48.75897" lon="-0.62799">
        <ele>200</ele>
        <time>2014-05-13T08:02:16Z</time>
      </trkpt>
      <trkpt lat="48.75893" lon="-0.62849">
        <ele>199.6</ele>
        <time>2014-05-13T08:02:27Z</time>
      </trkpt>
      <trkpt lat="48.75892" lon="-0.62857">
        <ele>199.4</ele>
        <time>2014-05-13T08:02:33Z</time>
      </trkpt>
      <trkpt lat="48.75895" lon="-0.62867">
        <ele>199.2</ele>
        <time>2014-05-13T08:03:00Z</time>
      </trkpt>
      <trkpt lat="48.75923" lon="-0.6287">
        <ele>198.4</ele>
        <time>2014-05-13T08:03:10Z</time>
      </trkpt>
      <trkpt lat="48.75955" lon="-0.62871">
        <ele>197.8</ele>
        <time>2014-05-13T08:03:19Z</time>
      </trkpt>
      <trkpt lat="48.75996" lon="-0.62871">
        <ele>198.2</ele>
        <time>2014-05-13T08:03:29Z</time>
      </trkpt>
      <trkpt lat="48.76007" lon="-0.62872">
        <ele>198.4</ele>
        <time>2014-05-13T08:03:32Z</time>
      </trkpt>
      <trkpt lat="48.76019" lon="-0.62884">
        <ele>199</ele>
        <time>2014-05-13T08:03:36Z</time>
      </trkpt>
      <trkpt lat="48.76039" lon="-0.6295">
        <ele>198</ele>
        <time>2014-05-13T08:03:49Z</time>
      </trkpt>
      <trkpt lat="48.76053" lon="-0.63009">
        <ele>197.2</ele>
        <time>2014-05-13T08:04:01Z</time>
      </trkpt>
      <trkpt lat="48.76055" lon="-0.63013">
        <ele>197.2</ele>
        <time>2014-05-13T08:04:03Z</time>
      </trkpt>
      <trkpt lat="48.76057" lon="-0.63017">
        <ele>197.2</ele>
        <time>2014-05-13T08:04:10Z</time>
      </trkpt>
      <trkpt lat="48.76072" lon="-0.6306">
        <ele>197</ele>
        <time>2014-05-13T08:07:08Z</time>
      </trkpt>
      <trkpt lat="48.76085" lon="-0.6309">
        <ele>197.2</ele>
        <time>2014-05-13T08:07:20Z</time>
      </trkpt>
      <trkpt lat="48.76087" lon="-0.63095">
        <ele>197.4</ele>
        <time>2014-05-13T08:07:22Z</time>
      </trkpt>
      <trkpt lat="48.76096" lon="-0.63117">
        <ele>197.6</ele>
        <time>2014-05-13T08:07:29Z</time>
      </trkpt>
      <trkpt lat="48.76115" lon="-0.63151">
        <ele>197.6</ele>
        <time>2014-05-13T08:07:38Z</time>
      </trkpt>
      <trkpt lat="48.76126" lon="-0.63172">
        <ele>197.6</ele>
        <time>2014-05-13T08:07:43Z</time>
      </trkpt>
      <trkpt lat="48.76157" lon="-0.63219">
        <ele>196.2</ele>
        <time>2014-05-13T08:07:55Z</time>
      </trkpt>
      <trkpt lat="48.76184" lon="-0.63247">
        <ele>195.4</ele>
        <time>2014-05-13T08:08:05Z</time>
      </trkpt>
      <trkpt lat="48.76198" lon="-0.63303">
        <ele>194.6</ele>
        <time>2014-05-13T08:08:16Z</time>
      </trkpt>
      <trkpt lat="48.76204" lon="-0.63334">
        <ele>194.4</ele>
        <time>2014-05-13T08:08:21Z</time>
      </trkpt>
      <trkpt lat="48.76221" lon="-0.63425">
        <ele>194.4</ele>
        <time>2014-05-13T08:08:37Z</time>
      </trkpt>
      <trkpt lat="48.76199" lon="-0.63473">
        <ele>194.4</ele>
        <time>2014-05-13T08:08:48Z</time>
      </trkpt>
      <trkpt lat="48.76174" lon="-0.6355">
        <ele>195.6</ele>
        <time>2014-05-13T08:09:04Z</time>
      </trkpt>
      <trkpt lat="48.76163" lon="-0.63598">
        <ele>197.2</ele>
        <time>2014-05-13T08:09:15Z</time>
      </trkpt>
      <trkpt lat="48.76143" lon="-0.63657">
        <ele>199.8</ele>
        <time>2014-05-13T08:09:29Z</time>
      </trkpt>
      <trkpt lat="48.76123" lon="-0.63681">
        <ele>201.6</ele>
        <time>2014-05-13T08:09:39Z</time>
      </trkpt>
      <trkpt lat="48.76101" lon="-0.63714">
        <ele>203</ele>
        <time>2014-05-13T08:09:51Z</time>
      </trkpt>
      <trkpt lat="48.7609" lon="-0.63762">
        <ele>204.6</ele>
        <time>2014-05-13T08:10:04Z</time>
      </trkpt>
      <trkpt lat="48.76073" lon="-0.63806">
        <ele>207.2</ele>
        <time>2014-05-13T08:10:16Z</time>
      </trkpt>
      <trkpt lat="48.7606" lon="-0.63827">
        <ele>208.4</ele>
        <time>2014-05-13T08:10:22Z</time>
      </trkpt>
      <trkpt lat="48.7605" lon="-0.63844">
        <ele>209.6</ele>
        <time>2014-05-13T08:10:27Z</time>
      </trkpt>
      <trkpt lat="48.76024" lon="-0.63895">
        <ele>211</ele>
        <time>2014-05-13T08:10:41Z</time>
      </trkpt>
      <trkpt lat="48.76" lon="-0.63939">
        <ele>212.6</ele>
        <time>2014-05-13T08:10:54Z</time>
      </trkpt>
      <trkpt lat="48.75981" lon="-0.63979">
        <ele>214.6</ele>
        <time>2014-05-13T08:11:06Z</time>
      </trkpt>
      <trkpt lat="48.75958" lon="-0.64027">
        <ele>217.2</ele>
        <time>2014-05-13T08:11:20Z</time>
      </trkpt>
      <trkpt lat="48.75944" lon="-0.64066">
        <ele>217.8</ele>
        <time>2014-05-13T08:11:30Z</time>
      </trkpt>
      <trkpt lat="48.75933" lon="-0.64109">
        <ele>218</ele>
        <time>2014-05-13T08:11:40Z</time>
      </trkpt>
      <trkpt lat="48.75929" lon="-0.64124">
        <ele>218.4</ele>
        <time>2014-05-13T08:11:44Z</time>
      </trkpt>
      <trkpt lat="48.75919" lon="-0.64151">
        <ele>218.8</ele>
        <time>2014-05-13T08:11:51Z</time>
      </trkpt>
      <trkpt lat="48.75905" lon="-0.64198">
        <ele>219.6</ele>
        <time>2014-05-13T08:12:00Z</time>
      </trkpt>
      <trkpt lat="48.75882" lon="-0.64271">
        <ele>220</ele>
        <time>2014-05-13T08:12:13Z</time>
      </trkpt>
      <trkpt lat="48.75866" lon="-0.64326">
        <ele>220.2</ele>
        <time>2014-05-13T08:12:24Z</time>
      </trkpt>
      <trkpt lat="48.75853" lon="-0.64374">
        <ele>220.2</ele>
        <time>2014-05-13T08:12:35Z</time>
      </trkpt>
      <trkpt lat="48.75847" lon="-0.64402">
        <ele>219.4</ele>
        <time>2014-05-13T08:12:40Z</time>
      </trkpt>
      <trkpt lat="48.75846" lon="-0.64424">
        <ele>218.6</ele>
        <time>2014-05-13T08:12:43Z</time>
      </trkpt>
      <trkpt lat="48.75844" lon="-0.64454">
        <ele>217.2</ele>
        <time>2014-05-13T08:12:47Z</time>
      </trkpt>
      <trkpt lat="48.75844" lon="-0.64485">
        <ele>216</ele>
        <time>2014-05-13T08:12:51Z</time>
      </trkpt>
      <trkpt lat="48.75847" lon="-0.6456">
        <ele>215.2</ele>
        <time>2014-05-13T08:13:04Z</time>
      </trkpt>
      <trkpt lat="48.75847" lon="-0.64618">
        <ele>215.4</ele>
        <time>2014-05-13T08:13:16Z</time>
      </trkpt>
      <trkpt lat="48.75838" lon="-0.64647">
        <ele>216.4</ele>
        <time>2014-05-13T08:13:24Z</time>
      </trkpt>
      <trkpt lat="48.75837" lon="-0.6465">
        <ele>216.6</ele>
        <time>2014-05-13T08:13:25Z</time>
      </trkpt>
      <trkpt lat="48.75815" lon="-0.64706">
        <ele>217.6</ele>
        <time>2014-05-13T08:13:40Z</time>
      </trkpt>
      <trkpt lat="48.75799" lon="-0.64745">
        <ele>218.8</ele>
        <time>2014-05-13T08:13:53Z</time>
      </trkpt>
      <trkpt lat="48.75791" lon="-0.64764">
        <ele>219.6</ele>
        <time>2014-05-13T08:14:02Z</time>
      </trkpt>
      <trkpt lat="48.75789" lon="-0.64765">
        <ele>219.8</ele>
        <time>2014-05-13T08:14:03Z</time>
      </trkpt>
      <trkpt lat="48.75787" lon="-0.64764">
        <ele>219.8</ele>
        <time>2014-05-13T08:14:04Z</time>
      </trkpt>
      <trkpt lat="48.75785" lon="-0.64763">
        <ele>219.6</ele>
        <time>2014-05-13T08:14:05Z</time>
      </trkpt>
      <trkpt lat="48.75783" lon="-0.64761">
        <ele>219.6</ele>
        <time>2014-05-13T08:14:06Z</time>
      </trkpt>
      <trkpt lat="48.7578" lon="-0.64759">
        <ele>219.6</ele>
        <time>2014-05-13T08:14:07Z</time>
      </trkpt>
      <trkpt lat="48.75773" lon="-0.64756">
        <ele>219.6</ele>
        <time>2014-05-13T08:14:09Z</time>
      </trkpt>
      <trkpt lat="48.7577" lon="-0.64753">
        <ele>219.6</ele>
        <time>2014-05-13T08:14:10Z</time>
      </trkpt>
      <trkpt lat="48.75741" lon="-0.64728">
        <ele>218.8</ele>
        <time>2014-05-13T08:14:21Z</time>
      </trkpt>
      <trkpt lat="48.75741" lon="-0.64728">
        <ele>218.4</ele>
        <time>2014-05-13T08:14:24Z</time>
      </trkpt>
      <trkpt lat="48.75736" lon="-0.64725">
        <ele>218.4</ele>
        <time>2014-05-13T08:14:38Z</time>
      </trkpt>
      <trkpt lat="48.75734" lon="-0.64725">
        <ele>218.4</ele>
        <time>2014-05-13T08:14:39Z</time>
      </trkpt>
      <trkpt lat="48.75732" lon="-0.64725">
        <ele>218.4</ele>
        <time>2014-05-13T08:14:40Z</time>
      </trkpt>
      <trkpt lat="48.75729" lon="-0.64724">
        <ele>218.2</ele>
        <time>2014-05-13T08:14:41Z</time>
      </trkpt>
      <trkpt lat="48.75725" lon="-0.64722">
        <ele>218.2</ele>
        <time>2014-05-13T08:14:42Z</time>
      </trkpt>
      <trkpt lat="48.75721" lon="-0.64721">
        <ele>218</ele>
        <time>2014-05-13T08:14:43Z</time>
      </trkpt>
      <trkpt lat="48.75717" lon="-0.64719">
        <ele>217.8</ele>
        <time>2014-05-13T08:14:44Z</time>
      </trkpt>
      <trkpt lat="48.75696" lon="-0.64716">
        <ele>216.6</ele>
        <time>2014-05-13T08:14:50Z</time>
      </trkpt>
      <trkpt lat="48.75695" lon="-0.64716">
        <ele>215.8</ele>
        <time>2014-05-13T08:14:54Z</time>
      </trkpt>
      <trkpt lat="48.7569" lon="-0.64721">
        <ele>215.4</ele>
        <time>2014-05-13T08:14:58Z</time>
      </trkpt>
      <trkpt lat="48.75689" lon="-0.64725">
        <ele>215.4</ele>
        <time>2014-05-13T08:14:59Z</time>
      </trkpt>
      <trkpt lat="48.75664" lon="-0.64811">
        <ele>215.2</ele>
        <time>2014-05-13T08:15:14Z</time>
      </trkpt>
      <trkpt lat="48.75632" lon="-0.64948">
        <ele>213</ele>
        <time>2014-05-13T08:15:35Z</time>
      </trkpt>
      <trkpt lat="48.75627" lon="-0.64972">
        <ele>212.4</ele>
        <time>2014-05-13T08:15:39Z</time>
      </trkpt>
      <trkpt lat="48.75626" lon="-0.64978">
        <ele>212.2</ele>
        <time>2014-05-13T08:15:40Z</time>
      </trkpt>
      <trkpt lat="48.75623" lon="-0.64982">
        <ele>212.2</ele>
        <time>2014-05-13T08:15:41Z</time>
      </trkpt>
      <trkpt lat="48.7562" lon="-0.64985">
        <ele>212</ele>
        <time>2014-05-13T08:15:42Z</time>
      </trkpt>
      <trkpt lat="48.75616" lon="-0.64986">
        <ele>211.8</ele>
        <time>2014-05-13T08:15:43Z</time>
      </trkpt>
      <trkpt lat="48.75612" lon="-0.64985">
        <ele>211.8</ele>
        <time>2014-05-13T08:15:44Z</time>
      </trkpt>
      <trkpt lat="48.75608" lon="-0.64984">
        <ele>211.8</ele>
        <time>2014-05-13T08:15:45Z</time>
      </trkpt>
      <trkpt lat="48.75604" lon="-0.64984">
        <ele>211.6</ele>
        <time>2014-05-13T08:15:46Z</time>
      </trkpt>
      <trkpt lat="48.756" lon="-0.64984">
        <ele>211.6</ele>
        <time>2014-05-13T08:15:47Z</time>
      </trkpt>
      <trkpt lat="48.75547" lon="-0.64987">
        <ele>211.2</ele>
        <time>2014-05-13T08:16:03Z</time>
      </trkpt>
      <trkpt lat="48.7549" lon="-0.64945">
        <ele>210.4</ele>
        <time>2014-05-13T08:16:18Z</time>
      </trkpt>
      <trkpt lat="48.75478" lon="-0.64935">
        <ele>210.2</ele>
        <time>2014-05-13T08:16:21Z</time>
      </trkpt>
      <trkpt lat="48.75465" lon="-0.64929">
        <ele>210.2</ele>
        <time>2014-05-13T08:16:24Z</time>
      </trkpt>
      <trkpt lat="48.7546" lon="-0.64927">
        <ele>210.2</ele>
        <time>2014-05-13T08:16:25Z</time>
      </trkpt>
      <trkpt lat="48.75379" lon="-0.64918">
        <ele>206.4</ele>
        <time>2014-05-13T08:16:38Z</time>
      </trkpt>
      <trkpt lat="48.75324" lon="-0.64908">
        <ele>203</ele>
        <time>2014-05-13T08:16:45Z</time>
      </trkpt>
      <trkpt lat="48.75282" lon="-0.64905">
        <ele>200.2</ele>
        <time>2014-05-13T08:16:50Z</time>
      </trkpt>
      <trkpt lat="48.75274" lon="-0.64903">
        <ele>199.6</ele>
        <time>2014-05-13T08:16:51Z</time>
      </trkpt>
      <trkpt lat="48.7522" lon="-0.64884">
        <ele>197</ele>
        <time>2014-05-13T08:16:58Z</time>
      </trkpt>
      <trkpt lat="48.75213" lon="-0.64884">
        <ele>196.8</ele>
        <time>2014-05-13T08:16:59Z</time>
      </trkpt>
      <trkpt lat="48.75201" lon="-0.64885">
        <ele>196.4</ele>
        <time>2014-05-13T08:17:01Z</time>
      </trkpt>
      <trkpt lat="48.75196" lon="-0.64887">
        <ele>196.2</ele>
        <time>2014-05-13T08:17:02Z</time>
      </trkpt>
      <trkpt lat="48.75192" lon="-0.64888">
        <ele>196.2</ele>
        <time>2014-05-13T08:17:03Z</time>
      </trkpt>
      <trkpt lat="48.75187" lon="-0.64887">
        <ele>196</ele>
        <time>2014-05-13T08:17:04Z</time>
      </trkpt>
      <trkpt lat="48.75184" lon="-0.64885">
        <ele>196</ele>
        <time>2014-05-13T08:17:05Z</time>
      </trkpt>
      <trkpt lat="48.75182" lon="-0.64881">
        <ele>196</ele>
        <time>2014-05-13T08:17:06Z</time>
      </trkpt>
      <trkpt lat="48.7518" lon="-0.64876">
        <ele>196</ele>
        <time>2014-05-13T08:17:07Z</time>
      </trkpt>
      <trkpt lat="48.75171" lon="-0.64863">
        <ele>195.8</ele>
        <time>2014-05-13T08:17:10Z</time>
      </trkpt>
      <trkpt lat="48.75166" lon="-0.64859">
        <ele>195.6</ele>
        <time>2014-05-13T08:17:11Z</time>
      </trkpt>
      <trkpt lat="48.75108" lon="-0.64811">
        <ele>192.6</ele>
        <time>2014-05-13T08:17:20Z</time>
      </trkpt>
      <trkpt lat="48.75101" lon="-0.64804">
        <ele>191.8</ele>
        <time>2014-05-13T08:17:21Z</time>
      </trkpt>
      <trkpt lat="48.75065" lon="-0.64778">
        <ele>188</ele>
        <time>2014-05-13T08:17:26Z</time>
      </trkpt>
      <trkpt lat="48.75059" lon="-0.64773">
        <ele>187.6</ele>
        <time>2014-05-13T08:17:27Z</time>
      </trkpt>
      <trkpt lat="48.75053" lon="-0.64769">
        <ele>187.4</ele>
        <time>2014-05-13T08:17:28Z</time>
      </trkpt>
      <trkpt lat="48.75037" lon="-0.64755">
        <ele>187.2</ele>
        <time>2014-05-13T08:17:31Z</time>
      </trkpt>
      <trkpt lat="48.75026" lon="-0.64739">
        <ele>187.6</ele>
        <time>2014-05-13T08:17:34Z</time>
      </trkpt>
      <trkpt lat="48.75023" lon="-0.64732">
        <ele>187.6</ele>
        <time>2014-05-13T08:17:35Z</time>
      </trkpt>
      <trkpt lat="48.7502" lon="-0.64725">
        <ele>187.6</ele>
        <time>2014-05-13T08:17:36Z</time>
      </trkpt>
      <trkpt lat="48.75018" lon="-0.64717">
        <ele>187.8</ele>
        <time>2014-05-13T08:17:37Z</time>
      </trkpt>
      <trkpt lat="48.75016" lon="-0.64708">
        <ele>187.8</ele>
        <time>2014-05-13T08:17:38Z</time>
      </trkpt>
      <trkpt lat="48.75014" lon="-0.64699">
        <ele>187.8</ele>
        <time>2014-05-13T08:17:39Z</time>
      </trkpt>
      <trkpt lat="48.75012" lon="-0.64689">
        <ele>187.6</ele>
        <time>2014-05-13T08:17:40Z</time>
      </trkpt>
      <trkpt lat="48.75002" lon="-0.64637">
        <ele>186.4</ele>
        <time>2014-05-13T08:17:45Z</time>
      </trkpt>
      <trkpt lat="48.74999" lon="-0.64628">
        <ele>186.2</ele>
        <time>2014-05-13T08:17:46Z</time>
      </trkpt>
      <trkpt lat="48.74992" lon="-0.64611">
        <ele>185.4</ele>
        <time>2014-05-13T08:17:48Z</time>
      </trkpt>
      <trkpt lat="48.74978" lon="-0.64591">
        <ele>184.4</ele>
        <time>2014-05-13T08:17:51Z</time>
      </trkpt>
      <trkpt lat="48.74973" lon="-0.64587">
        <ele>184.4</ele>
        <time>2014-05-13T08:17:52Z</time>
      </trkpt>
      <trkpt lat="48.74913" lon="-0.64561">
        <ele>186.6</ele>
        <time>2014-05-13T08:18:06Z</time>
      </trkpt>
      <trkpt lat="48.74877" lon="-0.64545">
        <ele>190</ele>
        <time>2014-05-13T08:18:17Z</time>
      </trkpt>
      <trkpt lat="48.74856" lon="-0.64531">
        <ele>191.6</ele>
        <time>2014-05-13T08:18:23Z</time>
      </trkpt>
      <trkpt lat="48.7484" lon="-0.6452">
        <ele>192.8</ele>
        <time>2014-05-13T08:18:27Z</time>
      </trkpt>
      <trkpt lat="48.74836" lon="-0.64517">
        <ele>193.2</ele>
        <time>2014-05-13T08:18:28Z</time>
      </trkpt>
      <trkpt lat="48.74833" lon="-0.64515">
        <ele>193.4</ele>
        <time>2014-05-13T08:18:29Z</time>
      </trkpt>
      <trkpt lat="48.74809" lon="-0.64498">
        <ele>196.8</ele>
        <time>2014-05-13T08:18:37Z</time>
      </trkpt>
      <trkpt lat="48.74787" lon="-0.64482">
        <ele>199.8</ele>
        <time>2014-05-13T08:18:45Z</time>
      </trkpt>
      <trkpt lat="48.74756" lon="-0.64461">
        <ele>203</ele>
        <time>2014-05-13T08:18:57Z</time>
      </trkpt>
      <trkpt lat="48.7471" lon="-0.6443">
        <ele>206</ele>
        <time>2014-05-13T08:19:15Z</time>
      </trkpt>
      <trkpt lat="48.74655" lon="-0.644">
        <ele>206.8</ele>
        <time>2014-05-13T08:19:33Z</time>
      </trkpt>
      <trkpt lat="48.74599" lon="-0.64405">
        <ele>206.8</ele>
        <time>2014-05-13T08:19:49Z</time>
      </trkpt>
      <trkpt lat="48.74573" lon="-0.6442">
        <ele>207.6</ele>
        <time>2014-05-13T08:19:57Z</time>
      </trkpt>
      <trkpt lat="48.74549" lon="-0.64436">
        <ele>208.2</ele>
        <time>2014-05-13T08:20:04Z</time>
      </trkpt>
      <trkpt lat="48.74496" lon="-0.64468">
        <ele>209.4</ele>
        <time>2014-05-13T08:20:20Z</time>
      </trkpt>
      <trkpt lat="48.74441" lon="-0.645">
        <ele>211.2</ele>
        <time>2014-05-13T08:20:35Z</time>
      </trkpt>
      <trkpt lat="48.74391" lon="-0.64525">
        <ele>212.6</ele>
        <time>2014-05-13T08:20:49Z</time>
      </trkpt>
      <trkpt lat="48.74391" lon="-0.64546">
        <ele>212.6</ele>
        <time>2014-05-13T08:20:53Z</time>
      </trkpt>
      <trkpt lat="48.74397" lon="-0.6457">
        <ele>212.8</ele>
        <time>2014-05-13T08:20:57Z</time>
      </trkpt>
      <trkpt lat="48.74407" lon="-0.64605">
        <ele>213.4</ele>
        <time>2014-05-13T08:21:03Z</time>
      </trkpt>
      <trkpt lat="48.74417" lon="-0.64659">
        <ele>214.2</ele>
        <time>2014-05-13T08:21:12Z</time>
      </trkpt>
      <trkpt lat="48.74429" lon="-0.64719">
        <ele>213.8</ele>
        <time>2014-05-13T08:21:22Z</time>
      </trkpt>
      <trkpt lat="48.74413" lon="-0.6473">
        <ele>214</ele>
        <time>2014-05-13T08:21:30Z</time>
      </trkpt>
      <trkpt lat="48.7441" lon="-0.64731">
        <ele>214</ele>
        <time>2014-05-13T08:21:31Z</time>
      </trkpt>
      <trkpt lat="48.74361" lon="-0.64754">
        <ele>214.4</ele>
        <time>2014-05-13T08:21:43Z</time>
      </trkpt>
      <trkpt lat="48.74332" lon="-0.64766">
        <ele>216.4</ele>
        <time>2014-05-13T08:21:53Z</time>
      </trkpt>
      <trkpt lat="48.74327" lon="-0.64769">
        <ele>216.6</ele>
        <time>2014-05-13T08:21:55Z</time>
      </trkpt>
      <trkpt lat="48.74324" lon="-0.64782">
        <ele>217.2</ele>
        <time>2014-05-13T08:22:00Z</time>
      </trkpt>
      <trkpt lat="48.74317" lon="-0.64842">
        <ele>215.8</ele>
        <time>2014-05-13T08:22:11Z</time>
      </trkpt>
      <trkpt lat="48.74317" lon="-0.64861">
        <ele>214.6</ele>
        <time>2014-05-13T08:22:18Z</time>
      </trkpt>
      <trkpt lat="48.74314" lon="-0.64892">
        <ele>215</ele>
        <time>2014-05-13T08:22:30Z</time>
      </trkpt>
      <trkpt lat="48.74313" lon="-0.64899">
        <ele>215</ele>
        <time>2014-05-13T08:22:32Z</time>
      </trkpt>
      <trkpt lat="48.74314" lon="-0.64915">
        <ele>214.8</ele>
        <time>2014-05-13T08:22:38Z</time>
      </trkpt>
      <trkpt lat="48.74305" lon="-0.64952">
        <ele>214.6</ele>
        <time>2014-05-13T08:22:52Z</time>
      </trkpt>
      <trkpt lat="48.74303" lon="-0.64956">
        <ele>214.6</ele>
        <time>2014-05-13T08:22:54Z</time>
      </trkpt>
      <trkpt lat="48.74285" lon="-0.64993">
        <ele>215.2</ele>
        <time>2014-05-13T08:23:07Z</time>
      </trkpt>
      <trkpt lat="48.74263" lon="-0.65031">
        <ele>215.6</ele>
        <time>2014-05-13T08:23:20Z</time>
      </trkpt>
      <trkpt lat="48.74243" lon="-0.65057">
        <ele>215.8</ele>
        <time>2014-05-13T08:23:31Z</time>
      </trkpt>
      <trkpt lat="48.74225" lon="-0.65077">
        <ele>216</ele>
        <time>2014-05-13T08:23:42Z</time>
      </trkpt>
      <trkpt lat="48.74218" lon="-0.65082">
        <ele>215.8</ele>
        <time>2014-05-13T08:23:47Z</time>
      </trkpt>
      <trkpt lat="48.74191" lon="-0.65102">
        <ele>216.2</ele>
        <time>2014-05-13T08:23:59Z</time>
      </trkpt>
      <trkpt lat="48.74169" lon="-0.65119">
        <ele>216.6</ele>
        <time>2014-05-13T08:24:11Z</time>
      </trkpt>
      <trkpt lat="48.74144" lon="-0.65142">
        <ele>217.6</ele>
        <time>2014-05-13T08:24:25Z</time>
      </trkpt>
      <trkpt lat="48.74133" lon="-0.65155">
        <ele>218.2</ele>
        <time>2014-05-13T08:24:31Z</time>
      </trkpt>
      <trkpt lat="48.74113" lon="-0.6518">
        <ele>218.8</ele>
        <time>2014-05-13T08:24:45Z</time>
      </trkpt>
      <trkpt lat="48.74094" lon="-0.65205">
        <ele>219.2</ele>
        <time>2014-05-13T08:24:56Z</time>
      </trkpt>
      <trkpt lat="48.74086" lon="-0.65219">
        <ele>219.6</ele>
        <time>2014-05-13T08:25:06Z</time>
      </trkpt>
      <trkpt lat="48.74085" lon="-0.6522">
        <ele>219.6</ele>
        <time>2014-05-13T08:25:10Z</time>
      </trkpt>
      <trkpt lat="48.74078" lon="-0.65232">
        <ele>219.4</ele>
        <time>2014-05-13T08:25:22Z</time>
      </trkpt>
      <trkpt lat="48.74073" lon="-0.65239">
        <ele>219.2</ele>
        <time>2014-05-13T08:25:26Z</time>
      </trkpt>
      <trkpt lat="48.74067" lon="-0.6525">
        <ele>219.4</ele>
        <time>2014-05-13T08:25:32Z</time>
      </trkpt>
      <trkpt lat="48.7406" lon="-0.6526">
        <ele>219.2</ele>
        <time>2014-05-13T08:25:37Z</time>
      </trkpt>
      <trkpt lat="48.74031" lon="-0.65283">
        <ele>219</ele>
        <time>2014-05-13T08:25:50Z</time>
      </trkpt>
      <trkpt lat="48.74012" lon="-0.65299">
        <ele>219.2</ele>
        <time>2014-05-13T08:26:01Z</time>
      </trkpt>
      <trkpt lat="48.74004" lon="-0.65308">
        <ele>219</ele>
        <time>2014-05-13T08:26:05Z</time>
      </trkpt>
      <trkpt lat="48.73991" lon="-0.65339">
        <ele>218.4</ele>
        <time>2014-05-13T08:26:15Z</time>
      </trkpt>
      <trkpt lat="48.73998" lon="-0.65385">
        <ele>216.6</ele>
        <time>2014-05-13T08:26:25Z</time>
      </trkpt>
      <trkpt lat="48.74" lon="-0.65402">
        <ele>216</ele>
        <time>2014-05-13T08:26:29Z</time>
      </trkpt>
      <trkpt lat="48.74015" lon="-0.65428">
        <ele>214</ele>
        <time>2014-05-13T08:26:38Z</time>
      </trkpt>
      <trkpt lat="48.74021" lon="-0.65442">
        <ele>213.4</ele>
        <time>2014-05-13T08:26:42Z</time>
      </trkpt>
      <trkpt lat="48.74046" lon="-0.6548">
        <ele>212.4</ele>
        <time>2014-05-13T08:26:53Z</time>
      </trkpt>
      <trkpt lat="48.74053" lon="-0.65497">
        <ele>211.8</ele>
        <time>2014-05-13T08:26:59Z</time>
      </trkpt>
      <trkpt lat="48.74055" lon="-0.65508">
        <ele>211.4</ele>
        <time>2014-05-13T08:27:03Z</time>
      </trkpt>
      <trkpt lat="48.74035" lon="-0.65519">
        <ele>210.4</ele>
        <time>2014-05-13T08:27:14Z</time>
      </trkpt>
      <trkpt lat="48.74004" lon="-0.65521">
        <ele>209</ele>
        <time>2014-05-13T08:27:25Z</time>
      </trkpt>
      <trkpt lat="48.73979" lon="-0.65527">
        <ele>208.8</ele>
        <time>2014-05-13T08:27:37Z</time>
      </trkpt>
      <trkpt lat="48.7395" lon="-0.6554">
        <ele>209</ele>
        <time>2014-05-13T08:27:47Z</time>
      </trkpt>
      <trkpt lat="48.73917" lon="-0.6556">
        <ele>211.2</ele>
        <time>2014-05-13T08:28:00Z</time>
      </trkpt>
      <trkpt lat="48.73893" lon="-0.6559">
        <ele>210.8</ele>
        <time>2014-05-13T08:28:11Z</time>
      </trkpt>
      <trkpt lat="48.73866" lon="-0.65588">
        <ele>208.8</ele>
        <time>2014-05-13T08:28:20Z</time>
      </trkpt>
      <trkpt lat="48.73852" lon="-0.65591">
        <ele>207.8</ele>
        <time>2014-05-13T08:28:25Z</time>
      </trkpt>
      <trkpt lat="48.73849" lon="-0.656">
        <ele>206.8</ele>
        <time>2014-05-13T08:28:30Z</time>
      </trkpt>
      <trkpt lat="48.7385" lon="-0.65604">
        <ele>206.8</ele>
        <time>2014-05-13T08:28:32Z</time>
      </trkpt>
      <trkpt lat="48.7385" lon="-0.65649">
        <ele>207.4</ele>
        <time>2014-05-13T08:28:43Z</time>
      </trkpt>
      <trkpt lat="48.73833" lon="-0.65677">
        <ele>208.4</ele>
        <time>2014-05-13T08:28:53Z</time>
      </trkpt>
      <trkpt lat="48.73812" lon="-0.65703">
        <ele>209.6</ele>
        <time>2014-05-13T08:29:04Z</time>
      </trkpt>
      <trkpt lat="48.73801" lon="-0.65707">
        <ele>209.8</ele>
        <time>2014-05-13T08:29:10Z</time>
      </trkpt>
      <trkpt lat="48.73785" lon="-0.6569">
        <ele>210.6</ele>
        <time>2014-05-13T08:29:19Z</time>
      </trkpt>
      <trkpt lat="48.73773" lon="-0.65679">
        <ele>211.2</ele>
        <time>2014-05-13T08:29:24Z</time>
      </trkpt>
      <trkpt lat="48.73737" lon="-0.65648">
        <ele>214</ele>
        <time>2014-05-13T08:29:39Z</time>
      </trkpt>
      <trkpt lat="48.73731" lon="-0.65643">
        <ele>215.2</ele>
        <time>2014-05-13T08:29:42Z</time>
      </trkpt>
      <trkpt lat="48.73701" lon="-0.65639">
        <ele>216.8</ele>
        <time>2014-05-13T08:29:54Z</time>
      </trkpt>
      <trkpt lat="48.73654" lon="-0.65662">
        <ele>217.4</ele>
        <time>2014-05-13T08:30:10Z</time>
      </trkpt>
      <trkpt lat="48.73595" lon="-0.65677">
        <ele>220.2</ele>
        <time>2014-05-13T08:30:29Z</time>
      </trkpt>
      <trkpt lat="48.73531" lon="-0.65673">
        <ele>220</ele>
        <time>2014-05-13T08:30:45Z</time>
      </trkpt>
      <trkpt lat="48.7346" lon="-0.65676">
        <ele>221</ele>
        <time>2014-05-13T08:31:03Z</time>
      </trkpt>
      <trkpt lat="48.73415" lon="-0.65678">
        <ele>223.4</ele>
        <time>2014-05-13T08:31:16Z</time>
      </trkpt>
      <trkpt lat="48.73356" lon="-0.65674">
        <ele>225.2</ele>
        <time>2014-05-13T08:31:32Z</time>
      </trkpt>
      <trkpt lat="48.7331" lon="-0.65652">
        <ele>227.4</ele>
        <time>2014-05-13T08:31:46Z</time>
      </trkpt>
      <trkpt lat="48.73298" lon="-0.65643">
        <ele>227.6</ele>
        <time>2014-05-13T08:31:49Z</time>
      </trkpt>
      <trkpt lat="48.73269" lon="-0.65634">
        <ele>226.2</ele>
        <time>2014-05-13T08:32:00Z</time>
      </trkpt>
      <trkpt lat="48.73265" lon="-0.65631">
        <ele>226.2</ele>
        <time>2014-05-13T08:32:02Z</time>
      </trkpt>
      <trkpt lat="48.73263" lon="-0.65627">
        <ele>226.2</ele>
        <time>2014-05-13T08:32:03Z</time>
      </trkpt>
      <trkpt lat="48.73262" lon="-0.65622">
        <ele>226.2</ele>
        <time>2014-05-13T08:32:04Z</time>
      </trkpt>
      <trkpt lat="48.73262" lon="-0.65616">
        <ele>226</ele>
        <time>2014-05-13T08:32:05Z</time>
      </trkpt>
      <trkpt lat="48.73262" lon="-0.65611">
        <ele>226</ele>
        <time>2014-05-13T08:32:06Z</time>
      </trkpt>
      <trkpt lat="48.73258" lon="-0.65532">
        <ele>228.6</ele>
        <time>2014-05-13T08:32:21Z</time>
      </trkpt>
      <trkpt lat="48.73241" lon="-0.65453">
        <ele>230.8</ele>
        <time>2014-05-13T08:32:37Z</time>
      </trkpt>
      <trkpt lat="48.73204" lon="-0.65404">
        <ele>231.4</ele>
        <time>2014-05-13T08:32:50Z</time>
      </trkpt>
      <trkpt lat="48.73187" lon="-0.65382">
        <ele>231</ele>
        <time>2014-05-13T08:32:55Z</time>
      </trkpt>
      <trkpt lat="48.73185" lon="-0.65376">
        <ele>230.8</ele>
        <time>2014-05-13T08:32:56Z</time>
      </trkpt>
      <trkpt lat="48.73177" lon="-0.65361">
        <ele>230.4</ele>
        <time>2014-05-13T08:32:59Z</time>
      </trkpt>
      <trkpt lat="48.73174" lon="-0.65357">
        <ele>230.2</ele>
        <time>2014-05-13T08:33:00Z</time>
      </trkpt>
      <trkpt lat="48.7317" lon="-0.65354">
        <ele>230.2</ele>
        <time>2014-05-13T08:33:01Z</time>
      </trkpt>
      <trkpt lat="48.73165" lon="-0.65352">
        <ele>230</ele>
        <time>2014-05-13T08:33:02Z</time>
      </trkpt>
      <trkpt lat="48.73161" lon="-0.65352">
        <ele>230</ele>
        <time>2014-05-13T08:33:03Z</time>
      </trkpt>
      <trkpt lat="48.73156" lon="-0.65353">
        <ele>229.8</ele>
        <time>2014-05-13T08:33:04Z</time>
      </trkpt>
      <trkpt lat="48.73151" lon="-0.65354">
        <ele>229.6</ele>
        <time>2014-05-13T08:33:05Z</time>
      </trkpt>
      <trkpt lat="48.73084" lon="-0.65383">
        <ele>227.8</ele>
        <time>2014-05-13T08:33:22Z</time>
      </trkpt>
      <trkpt lat="48.73007" lon="-0.65414">
        <ele>227.6</ele>
        <time>2014-05-13T08:33:40Z</time>
      </trkpt>
      <trkpt lat="48.72931" lon="-0.65443">
        <ele>229.2</ele>
        <time>2014-05-13T08:33:58Z</time>
      </trkpt>
      <trkpt lat="48.72884" lon="-0.65463">
        <ele>231</ele>
        <time>2014-05-13T08:34:09Z</time>
      </trkpt>
      <trkpt lat="48.7288" lon="-0.65465">
        <ele>231.2</ele>
        <time>2014-05-13T08:34:10Z</time>
      </trkpt>
      <trkpt lat="48.72811" lon="-0.65501">
        <ele>233</ele>
        <time>2014-05-13T08:34:29Z</time>
      </trkpt>
      <trkpt lat="48.72794" lon="-0.65527">
        <ele>233.2</ele>
        <time>2014-05-13T08:34:35Z</time>
      </trkpt>
      <trkpt lat="48.72785" lon="-0.65555">
        <ele>233.6</ele>
        <time>2014-05-13T08:34:40Z</time>
      </trkpt>
      <trkpt lat="48.72784" lon="-0.65562">
        <ele>233.6</ele>
        <time>2014-05-13T08:34:41Z</time>
      </trkpt>
      <trkpt lat="48.72783" lon="-0.65679">
        <ele>235.6</ele>
        <time>2014-05-13T08:34:59Z</time>
      </trkpt>
      <trkpt lat="48.72799" lon="-0.65791">
        <ele>234</ele>
        <time>2014-05-13T08:35:17Z</time>
      </trkpt>
      <trkpt lat="48.72824" lon="-0.65849">
        <ele>233.6</ele>
        <time>2014-05-13T08:35:31Z</time>
      </trkpt>
      <trkpt lat="48.72847" lon="-0.65892">
        <ele>233.4</ele>
        <time>2014-05-13T08:35:45Z</time>
      </trkpt>
      <trkpt lat="48.72847" lon="-0.65894">
        <ele>233.4</ele>
        <time>2014-05-13T08:35:46Z</time>
      </trkpt>
      <trkpt lat="48.72846" lon="-0.65895">
        <ele>233.4</ele>
        <time>2014-05-13T08:35:47Z</time>
      </trkpt>
      <trkpt lat="48.72845" lon="-0.65894">
        <ele>233.4</ele>
        <time>2014-05-13T08:35:48Z</time>
      </trkpt>
      <trkpt lat="48.72843" lon="-0.65893">
        <ele>233.4</ele>
        <time>2014-05-13T08:35:49Z</time>
      </trkpt>
      <trkpt lat="48.72842" lon="-0.65889">
        <ele>233.4</ele>
        <time>2014-05-13T08:35:50Z</time>
      </trkpt>
      <trkpt lat="48.72832" lon="-0.65865">
        <ele>233.8</ele>
        <time>2014-05-13T08:35:56Z</time>
      </trkpt>
      <trkpt lat="48.72815" lon="-0.65828">
        <ele>234.2</ele>
        <time>2014-05-13T08:36:06Z</time>
      </trkpt>
      <trkpt lat="48.72812" lon="-0.65818">
        <ele>234.2</ele>
        <time>2014-05-13T08:36:09Z</time>
      </trkpt>
      <trkpt lat="48.72812" lon="-0.65816">
        <ele>234.2</ele>
        <time>2014-05-13T08:36:10Z</time>
      </trkpt>
      <trkpt lat="48.72813" lon="-0.65815">
        <ele>234.4</ele>
        <time>2014-05-13T08:36:11Z</time>
      </trkpt>
      <trkpt lat="48.72815" lon="-0.65814">
        <ele>234.4</ele>
        <time>2014-05-13T08:36:12Z</time>
      </trkpt>
      <trkpt lat="48.72817" lon="-0.65814">
        <ele>234.4</ele>
        <time>2014-05-13T08:36:13Z</time>
      </trkpt>
      <trkpt lat="48.7284" lon="-0.65823">
        <ele>233.4</ele>
        <time>2014-05-13T08:36:26Z</time>
      </trkpt>
      <trkpt lat="48.72867" lon="-0.65833">
        <ele>232.8</ele>
        <time>2014-05-13T08:36:40Z</time>
      </trkpt>
      <trkpt lat="48.72873" lon="-0.65833">
        <ele>232.4</ele>
        <time>2014-05-13T08:36:44Z</time>
      </trkpt>
      <trkpt lat="48.72874" lon="-0.65836">
        <ele>232.2</ele>
        <time>2014-05-13T08:36:46Z</time>
      </trkpt>
      <trkpt lat="48.72873" lon="-0.65837">
        <ele>232</ele>
        <time>2014-05-13T08:36:48Z</time>
      </trkpt>
      <trkpt lat="48.72872" lon="-0.65837">
        <ele>232</ele>
        <time>2014-05-13T08:36:49Z</time>
      </trkpt>
      <trkpt lat="48.72839" lon="-0.65826">
        <ele>232.4</ele>
        <time>2014-05-13T08:37:03Z</time>
      </trkpt>
      <trkpt lat="48.72802" lon="-0.65804">
        <ele>234</ele>
        <time>2014-05-13T08:37:19Z</time>
      </trkpt>
      <trkpt lat="48.72787" lon="-0.65798">
        <ele>234.2</ele>
        <time>2014-05-13T08:37:27Z</time>
      </trkpt>
      <trkpt lat="48.72783" lon="-0.65799">
        <ele>234.4</ele>
        <time>2014-05-13T08:37:30Z</time>
      </trkpt>
      <trkpt lat="48.72781" lon="-0.65799">
        <ele>234.4</ele>
        <time>2014-05-13T08:37:31Z</time>
      </trkpt>
      <trkpt lat="48.72779" lon="-0.65798">
        <ele>234.4</ele>
        <time>2014-05-13T08:37:32Z</time>
      </trkpt>
      <trkpt lat="48.72741" lon="-0.65785">
        <ele>234.8</ele>
        <time>2014-05-13T08:37:46Z</time>
      </trkpt>
      <trkpt lat="48.72704" lon="-0.65772">
        <ele>236</ele>
        <time>2014-05-13T08:37:58Z</time>
      </trkpt>
      <trkpt lat="48.72653" lon="-0.65749">
        <ele>237.2</ele>
        <time>2014-05-13T08:38:12Z</time>
      </trkpt>
      <trkpt lat="48.72615" lon="-0.65733">
        <ele>238.6</ele>
        <time>2014-05-13T08:38:25Z</time>
      </trkpt>
      <trkpt lat="48.72594" lon="-0.65727">
        <ele>239.2</ele>
        <time>2014-05-13T08:38:35Z</time>
      </trkpt>
      <trkpt lat="48.72552" lon="-0.65709">
        <ele>238.2</ele>
        <time>2014-05-13T08:38:48Z</time>
      </trkpt>
      <trkpt lat="48.72506" lon="-0.65693">
        <ele>238.6</ele>
        <time>2014-05-13T08:39:00Z</time>
      </trkpt>
      <trkpt lat="48.7245" lon="-0.65672">
        <ele>240.4</ele>
        <time>2014-05-13T08:39:15Z</time>
      </trkpt>
      <trkpt lat="48.72423" lon="-0.6566">
        <ele>243.6</ele>
        <time>2014-05-13T08:39:25Z</time>
      </trkpt>
      <trkpt lat="48.72377" lon="-0.65648">
        <ele>246.6</ele>
        <time>2014-05-13T08:39:38Z</time>
      </trkpt>
      <trkpt lat="48.72332" lon="-0.65622">
        <ele>248</ele>
        <time>2014-05-13T08:39:51Z</time>
      </trkpt>
      <trkpt lat="48.72307" lon="-0.65595">
        <ele>248.6</ele>
        <time>2014-05-13T08:40:01Z</time>
      </trkpt>
      <trkpt lat="48.72287" lon="-0.6556">
        <ele>250.2</ele>
        <time>2014-05-13T08:40:10Z</time>
      </trkpt>
      <trkpt lat="48.72262" lon="-0.65533">
        <ele>252.2</ele>
        <time>2014-05-13T08:40:18Z</time>
      </trkpt>
      <trkpt lat="48.72245" lon="-0.65521">
        <ele>253.6</ele>
        <time>2014-05-13T08:40:23Z</time>
      </trkpt>
      <trkpt lat="48.72206" lon="-0.65493">
        <ele>253.6</ele>
        <time>2014-05-13T08:40:35Z</time>
      </trkpt>
      <trkpt lat="48.72192" lon="-0.65477">
        <ele>253.6</ele>
        <time>2014-05-13T08:40:44Z</time>
      </trkpt>
      <trkpt lat="48.72184" lon="-0.65467">
        <ele>253.6</ele>
        <time>2014-05-13T08:40:49Z</time>
      </trkpt>
      <trkpt lat="48.72153" lon="-0.65435">
        <ele>254.2</ele>
        <time>2014-05-13T08:41:00Z</time>
      </trkpt>
      <trkpt lat="48.72124" lon="-0.6541">
        <ele>255.6</ele>
        <time>2014-05-13T08:41:11Z</time>
      </trkpt>
      <trkpt lat="48.72091" lon="-0.65391">
        <ele>255.8</ele>
        <time>2014-05-13T08:41:23Z</time>
      </trkpt>
      <trkpt lat="48.7205" lon="-0.65395">
        <ele>254.8</ele>
        <time>2014-05-13T08:41:33Z</time>
      </trkpt>
      <trkpt lat="48.72001" lon="-0.65397">
        <ele>253.2</ele>
        <time>2014-05-13T08:41:46Z</time>
      </trkpt>
      <trkpt lat="48.72" lon="-0.65396">
        <ele>252.6</ele>
        <time>2014-05-13T08:41:50Z</time>
      </trkpt>
      <trkpt lat="48.71998" lon="-0.65388">
        <ele>252.8</ele>
        <time>2014-05-13T08:42:03Z</time>
      </trkpt>
      <trkpt lat="48.71998" lon="-0.65353">
        <ele>252.6</ele>
        <time>2014-05-13T08:42:09Z</time>
      </trkpt>
      <trkpt lat="48.71998" lon="-0.65327">
        <ele>252.2</ele>
        <time>2014-05-13T08:42:13Z</time>
      </trkpt>
      <trkpt lat="48.71995" lon="-0.65296">
        <ele>251.6</ele>
        <time>2014-05-13T08:42:18Z</time>
      </trkpt>
      <trkpt lat="48.7198" lon="-0.6522">
        <ele>249</ele>
        <time>2014-05-13T08:42:31Z</time>
      </trkpt>
      <trkpt lat="48.7198" lon="-0.65206">
        <ele>248.6</ele>
        <time>2014-05-13T08:42:33Z</time>
      </trkpt>
      <trkpt lat="48.7198" lon="-0.65149">
        <ele>246.6</ele>
        <time>2014-05-13T08:42:42Z</time>
      </trkpt>
      <trkpt lat="48.71981" lon="-0.65135">
        <ele>246</ele>
        <time>2014-05-13T08:42:44Z</time>
      </trkpt>
      <trkpt lat="48.71983" lon="-0.65076">
        <ele>244.8</ele>
        <time>2014-05-13T08:42:54Z</time>
      </trkpt>
      <trkpt lat="48.72002" lon="-0.65052">
        <ele>244.2</ele>
        <time>2014-05-13T08:43:03Z</time>
      </trkpt>
      <trkpt lat="48.7202" lon="-0.65052">
        <ele>244.2</ele>
        <time>2014-05-13T08:43:08Z</time>
      </trkpt>
      <trkpt lat="48.72024" lon="-0.65033">
        <ele>243.8</ele>
        <time>2014-05-13T08:43:14Z</time>
      </trkpt>
      <trkpt lat="48.72026" lon="-0.65022">
        <ele>243.6</ele>
        <time>2014-05-13T08:43:16Z</time>
      </trkpt>
      <trkpt lat="48.72028" lon="-0.64999">
        <ele>243.6</ele>
        <time>2014-05-13T08:43:19Z</time>
      </trkpt>
      <trkpt lat="48.72035" lon="-0.64949">
        <ele>243.2</ele>
        <time>2014-05-13T08:43:26Z</time>
      </trkpt>
      <trkpt lat="48.7204" lon="-0.64887">
        <ele>243.4</ele>
        <time>2014-05-13T08:43:34Z</time>
      </trkpt>
      <trkpt lat="48.72051" lon="-0.64842">
        <ele>243.6</ele>
        <time>2014-05-13T08:43:40Z</time>
      </trkpt>
      <trkpt lat="48.72057" lon="-0.64809">
        <ele>244.4</ele>
        <time>2014-05-13T08:43:45Z</time>
      </trkpt>
      <trkpt lat="48.7205" lon="-0.64745">
        <ele>246.6</ele>
        <time>2014-05-13T08:43:56Z</time>
      </trkpt>
      <trkpt lat="48.72047" lon="-0.64736">
        <ele>247.2</ele>
        <time>2014-05-13T08:43:59Z</time>
      </trkpt>
      <trkpt lat="48.72046" lon="-0.64734">
        <ele>247.4</ele>
        <time>2014-05-13T08:44:00Z</time>
      </trkpt>
      <trkpt lat="48.72041" lon="-0.64726">
        <ele>247.6</ele>
        <time>2014-05-13T08:44:04Z</time>
      </trkpt>
      <trkpt lat="48.72032" lon="-0.64725">
        <ele>247.6</ele>
        <time>2014-05-13T08:44:10Z</time>
      </trkpt>
      <trkpt lat="48.72031" lon="-0.64724">
        <ele>247.6</ele>
        <time>2014-05-13T08:44:11Z</time>
      </trkpt>
      <trkpt lat="48.72029" lon="-0.64723">
        <ele>247.6</ele>
        <time>2014-05-13T08:44:12Z</time>
      </trkpt>
      <trkpt lat="48.72027" lon="-0.64723">
        <ele>247.6</ele>
        <time>2014-05-13T08:44:13Z</time>
      </trkpt>
      <trkpt lat="48.72025" lon="-0.64722">
        <ele>247.6</ele>
        <time>2014-05-13T08:44:14Z</time>
      </trkpt>
      <trkpt lat="48.72023" lon="-0.64721">
        <ele>247.6</ele>
        <time>2014-05-13T08:44:15Z</time>
      </trkpt>
      <trkpt lat="48.72022" lon="-0.6472">
        <ele>247.6</ele>
        <time>2014-05-13T08:44:16Z</time>
      </trkpt>
      <trkpt lat="48.7202" lon="-0.64718">
        <ele>247.6</ele>
        <time>2014-05-13T08:44:17Z</time>
      </trkpt>
      <trkpt lat="48.72018" lon="-0.64716">
        <ele>247.4</ele>
        <time>2014-05-13T08:44:18Z</time>
      </trkpt>
      <trkpt lat="48.72016" lon="-0.64715">
        <ele>247.4</ele>
        <time>2014-05-13T08:44:19Z</time>
      </trkpt>
      <trkpt lat="48.71991" lon="-0.6469">
        <ele>247.2</ele>
        <time>2014-05-13T08:44:31Z</time>
      </trkpt>
      <trkpt lat="48.7199" lon="-0.64685">
        <ele>247</ele>
        <time>2014-05-13T08:44:32Z</time>
      </trkpt>
      <trkpt lat="48.7199" lon="-0.6468">
        <ele>246.8</ele>
        <time>2014-05-13T08:44:33Z</time>
      </trkpt>
      <trkpt lat="48.7199" lon="-0.64674">
        <ele>246.8</ele>
        <time>2014-05-13T08:44:34Z</time>
      </trkpt>
      <trkpt lat="48.71991" lon="-0.64667">
        <ele>246.8</ele>
        <time>2014-05-13T08:44:35Z</time>
      </trkpt>
      <trkpt lat="48.71992" lon="-0.64644">
        <ele>246.8</ele>
        <time>2014-05-13T08:44:38Z</time>
      </trkpt>
      <trkpt lat="48.71985" lon="-0.64578">
        <ele>248</ele>
        <time>2014-05-13T08:44:46Z</time>
      </trkpt>
      <trkpt lat="48.7196" lon="-0.64437">
        <ele>247</ele>
        <time>2014-05-13T08:45:00Z</time>
      </trkpt>
      <trkpt lat="48.71947" lon="-0.64347">
        <ele>244.6</ele>
        <time>2014-05-13T08:45:07Z</time>
      </trkpt>
      <trkpt lat="48.71945" lon="-0.64333">
        <ele>244</ele>
        <time>2014-05-13T08:45:08Z</time>
      </trkpt>
      <trkpt lat="48.71944" lon="-0.6432">
        <ele>243.4</ele>
        <time>2014-05-13T08:45:09Z</time>
      </trkpt>
      <trkpt lat="48.7194" lon="-0.64238">
        <ele>240.4</ele>
        <time>2014-05-13T08:45:15Z</time>
      </trkpt>
      <trkpt lat="48.71943" lon="-0.64184">
        <ele>238.6</ele>
        <time>2014-05-13T08:45:19Z</time>
      </trkpt>
      <trkpt lat="48.71942" lon="-0.6417">
        <ele>238.4</ele>
        <time>2014-05-13T08:45:20Z</time>
      </trkpt>
      <trkpt lat="48.71939" lon="-0.64157">
        <ele>238</ele>
        <time>2014-05-13T08:45:21Z</time>
      </trkpt>
      <trkpt lat="48.71934" lon="-0.64144">
        <ele>237.6</ele>
        <time>2014-05-13T08:45:22Z</time>
      </trkpt>
      <trkpt lat="48.71929" lon="-0.64131">
        <ele>237</ele>
        <time>2014-05-13T08:45:23Z</time>
      </trkpt>
      <trkpt lat="48.71915" lon="-0.64087">
        <ele>234</ele>
        <time>2014-05-13T08:45:26Z</time>
      </trkpt>
      <trkpt lat="48.71903" lon="-0.64022">
        <ele>231</ele>
        <time>2014-05-13T08:45:30Z</time>
      </trkpt>
      <trkpt lat="48.71902" lon="-0.64006">
        <ele>230.2</ele>
        <time>2014-05-13T08:45:31Z</time>
      </trkpt>
      <trkpt lat="48.71902" lon="-0.63989">
        <ele>229.4</ele>
        <time>2014-05-13T08:45:32Z</time>
      </trkpt>
      <trkpt lat="48.71904" lon="-0.63974">
        <ele>228.6</ele>
        <time>2014-05-13T08:45:33Z</time>
      </trkpt>
      <trkpt lat="48.71908" lon="-0.63958">
        <ele>227.8</ele>
        <time>2014-05-13T08:45:34Z</time>
      </trkpt>
      <trkpt lat="48.71912" lon="-0.63943">
        <ele>227</ele>
        <time>2014-05-13T08:45:35Z</time>
      </trkpt>
      <trkpt lat="48.71933" lon="-0.63865">
        <ele>223.4</ele>
        <time>2014-05-13T08:45:40Z</time>
      </trkpt>
      <trkpt lat="48.71951" lon="-0.63807">
        <ele>220.6</ele>
        <time>2014-05-13T08:45:44Z</time>
      </trkpt>
      <trkpt lat="48.71954" lon="-0.63793">
        <ele>220</ele>
        <time>2014-05-13T08:45:45Z</time>
      </trkpt>
      <trkpt lat="48.71956" lon="-0.6378">
        <ele>219.2</ele>
        <time>2014-05-13T08:45:46Z</time>
      </trkpt>
      <trkpt lat="48.7196" lon="-0.63757">
        <ele>217.8</ele>
        <time>2014-05-13T08:45:48Z</time>
      </trkpt>
      <trkpt lat="48.71963" lon="-0.63746">
        <ele>216.6</ele>
        <time>2014-05-13T08:45:49Z</time>
      </trkpt>
      <trkpt lat="48.7197" lon="-0.63725">
        <ele>215.4</ele>
        <time>2014-05-13T08:45:51Z</time>
      </trkpt>
      <trkpt lat="48.71975" lon="-0.63716">
        <ele>214.8</ele>
        <time>2014-05-13T08:45:52Z</time>
      </trkpt>
      <trkpt lat="48.71998" lon="-0.63667">
        <ele>212.6</ele>
        <time>2014-05-13T08:45:57Z</time>
      </trkpt>
      <trkpt lat="48.72002" lon="-0.63657">
        <ele>212.2</ele>
        <time>2014-05-13T08:45:58Z</time>
      </trkpt>
      <trkpt lat="48.72007" lon="-0.63648">
        <ele>211.8</ele>
        <time>2014-05-13T08:45:59Z</time>
      </trkpt>
      <trkpt lat="48.72056" lon="-0.63564">
        <ele>209.2</ele>
        <time>2014-05-13T08:46:09Z</time>
      </trkpt>
      <trkpt lat="48.72091" lon="-0.63458">
        <ele>208</ele>
        <time>2014-05-13T08:46:20Z</time>
      </trkpt>
      <trkpt lat="48.72096" lon="-0.6344">
        <ele>207.8</ele>
        <time>2014-05-13T08:46:22Z</time>
      </trkpt>
      <trkpt lat="48.72122" lon="-0.63276">
        <ele>206.2</ele>
        <time>2014-05-13T08:46:38Z</time>
      </trkpt>
      <trkpt lat="48.72145" lon="-0.63147">
        <ele>202.6</ele>
        <time>2014-05-13T08:46:48Z</time>
      </trkpt>
      <trkpt lat="48.72163" lon="-0.6305">
        <ele>199</ele>
        <time>2014-05-13T08:46:54Z</time>
      </trkpt>
      <trkpt lat="48.72181" lon="-0.62962">
        <ele>195.4</ele>
        <time>2014-05-13T08:46:59Z</time>
      </trkpt>
      <trkpt lat="48.72195" lon="-0.62906">
        <ele>191.8</ele>
        <time>2014-05-13T08:47:02Z</time>
      </trkpt>
      <trkpt lat="48.72201" lon="-0.62887">
        <ele>188.4</ele>
        <time>2014-05-13T08:47:03Z</time>
      </trkpt>
      <trkpt lat="48.72213" lon="-0.62852">
        <ele>185.2</ele>
        <time>2014-05-13T08:47:05Z</time>
      </trkpt>
      <trkpt lat="48.72219" lon="-0.62838">
        <ele>183.6</ele>
        <time>2014-05-13T08:47:06Z</time>
      </trkpt>
      <trkpt lat="48.72228" lon="-0.62817">
        <ele>181.2</ele>
        <time>2014-05-13T08:47:08Z</time>
      </trkpt>
      <trkpt lat="48.72231" lon="-0.62808">
        <ele>180.2</ele>
        <time>2014-05-13T08:47:09Z</time>
      </trkpt>
      <trkpt lat="48.72233" lon="-0.62799">
        <ele>179.2</ele>
        <time>2014-05-13T08:47:10Z</time>
      </trkpt>
      <trkpt lat="48.72233" lon="-0.6279">
        <ele>178.6</ele>
        <time>2014-05-13T08:47:11Z</time>
      </trkpt>
      <trkpt lat="48.72233" lon="-0.62782">
        <ele>178</ele>
        <time>2014-05-13T08:47:12Z</time>
      </trkpt>
      <trkpt lat="48.72231" lon="-0.62775">
        <ele>177.6</ele>
        <time>2014-05-13T08:47:13Z</time>
      </trkpt>
      <trkpt lat="48.7223" lon="-0.62769">
        <ele>177.4</ele>
        <time>2014-05-13T08:47:14Z</time>
      </trkpt>
      <trkpt lat="48.72228" lon="-0.62765">
        <ele>177.2</ele>
        <time>2014-05-13T08:47:15Z</time>
      </trkpt>
      <trkpt lat="48.72226" lon="-0.62763">
        <ele>177.2</ele>
        <time>2014-05-13T08:47:16Z</time>
      </trkpt>
      <trkpt lat="48.72224" lon="-0.62762">
        <ele>177.2</ele>
        <time>2014-05-13T08:47:17Z</time>
      </trkpt>
      <trkpt lat="48.72222" lon="-0.62762">
        <ele>177.2</ele>
        <time>2014-05-13T08:47:18Z</time>
      </trkpt>
      <trkpt lat="48.72219" lon="-0.62763">
        <ele>177.4</ele>
        <time>2014-05-13T08:47:19Z</time>
      </trkpt>
      <trkpt lat="48.72216" lon="-0.62764">
        <ele>177.6</ele>
        <time>2014-05-13T08:47:20Z</time>
      </trkpt>
      <trkpt lat="48.72165" lon="-0.62781">
        <ele>180.6</ele>
        <time>2014-05-13T08:47:33Z</time>
      </trkpt>
      <trkpt lat="48.7212" lon="-0.62796">
        <ele>183.8</ele>
        <time>2014-05-13T08:47:44Z</time>
      </trkpt>
      <trkpt lat="48.72082" lon="-0.62807">
        <ele>187</ele>
        <time>2014-05-13T08:47:53Z</time>
      </trkpt>
      <trkpt lat="48.72056" lon="-0.62815">
        <ele>188.8</ele>
        <time>2014-05-13T08:47:58Z</time>
      </trkpt>
      <trkpt lat="48.72008" lon="-0.62831">
        <ele>192</ele>
        <time>2014-05-13T08:48:07Z</time>
      </trkpt>
      <trkpt lat="48.71977" lon="-0.62839">
        <ele>194.6</ele>
        <time>2014-05-13T08:48:15Z</time>
      </trkpt>
      <trkpt lat="48.71974" lon="-0.62839">
        <ele>194.8</ele>
        <time>2014-05-13T08:48:16Z</time>
      </trkpt>
      <trkpt lat="48.71971" lon="-0.62836">
        <ele>195</ele>
        <time>2014-05-13T08:48:17Z</time>
      </trkpt>
      <trkpt lat="48.71969" lon="-0.62833">
        <ele>195.2</ele>
        <time>2014-05-13T08:48:18Z</time>
      </trkpt>
      <trkpt lat="48.71966" lon="-0.62826">
        <ele>195.4</ele>
        <time>2014-05-13T08:48:20Z</time>
      </trkpt>
      <trkpt lat="48.71964" lon="-0.62822">
        <ele>195.6</ele>
        <time>2014-05-13T08:48:21Z</time>
      </trkpt>
      <trkpt lat="48.71962" lon="-0.62817">
        <ele>195.8</ele>
        <time>2014-05-13T08:48:22Z</time>
      </trkpt>
      <trkpt lat="48.7194" lon="-0.62778">
        <ele>193.2</ele>
        <time>2014-05-13T08:48:33Z</time>
      </trkpt>
      <trkpt lat="48.71926" lon="-0.62767">
        <ele>192</ele>
        <time>2014-05-13T08:48:40Z</time>
      </trkpt>
      <trkpt lat="48.71908" lon="-0.62729">
        <ele>191.6</ele>
        <time>2014-05-13T08:48:52Z</time>
      </trkpt>
      <trkpt lat="48.71902" lon="-0.62719">
        <ele>191.8</ele>
        <time>2014-05-13T08:48:54Z</time>
      </trkpt>
      <trkpt lat="48.71873" lon="-0.62672">
        <ele>192.8</ele>
        <time>2014-05-13T08:49:05Z</time>
      </trkpt>
      <trkpt lat="48.71871" lon="-0.62667">
        <ele>193</ele>
        <time>2014-05-13T08:49:07Z</time>
      </trkpt>
      <trkpt lat="48.71872" lon="-0.62663">
        <ele>193.2</ele>
        <time>2014-05-13T08:49:08Z</time>
      </trkpt>
      <trkpt lat="48.71876" lon="-0.62647">
        <ele>193.6</ele>
        <time>2014-05-13T08:49:11Z</time>
      </trkpt>
      <trkpt lat="48.71879" lon="-0.62635">
        <ele>193.8</ele>
        <time>2014-05-13T08:49:13Z</time>
      </trkpt>
      <trkpt lat="48.7188" lon="-0.62628">
        <ele>193.8</ele>
        <time>2014-05-13T08:49:14Z</time>
      </trkpt>
      <trkpt lat="48.7188" lon="-0.62597">
        <ele>193.4</ele>
        <time>2014-05-13T08:49:23Z</time>
      </trkpt>
      <trkpt lat="48.71877" lon="-0.62597">
        <ele>193.6</ele>
        <time>2014-05-13T08:49:29Z</time>
      </trkpt>
      <trkpt lat="48.71882" lon="-0.62585">
        <ele>193.2</ele>
        <time>2014-05-13T08:49:46Z</time>
      </trkpt>
      <trkpt lat="48.71885" lon="-0.6258">
        <ele>193.2</ele>
        <time>2014-05-13T08:49:47Z</time>
      </trkpt>
      <trkpt lat="48.71897" lon="-0.62564">
        <ele>192.6</ele>
        <time>2014-05-13T08:49:50Z</time>
      </trkpt>
      <trkpt lat="48.71919" lon="-0.62536">
        <ele>189.4</ele>
        <time>2014-05-13T08:49:56Z</time>
      </trkpt>
      <trkpt lat="48.71926" lon="-0.62528">
        <ele>188.4</ele>
        <time>2014-05-13T08:49:58Z</time>
      </trkpt>
      <trkpt lat="48.71929" lon="-0.62523">
        <ele>187.8</ele>
        <time>2014-05-13T08:49:59Z</time>
      </trkpt>
      <trkpt lat="48.71934" lon="-0.62513">
        <ele>187</ele>
        <time>2014-05-13T08:50:01Z</time>
      </trkpt>
      <trkpt lat="48.71938" lon="-0.62503">
        <ele>185.6</ele>
        <time>2014-05-13T08:50:04Z</time>
      </trkpt>
      <trkpt lat="48.71956" lon="-0.62467">
        <ele>184.6</ele>
        <time>2014-05-13T08:50:14Z</time>
      </trkpt>
      <trkpt lat="48.7196" lon="-0.62456">
        <ele>184.4</ele>
        <time>2014-05-13T08:50:16Z</time>
      </trkpt>
      <trkpt lat="48.71978" lon="-0.62412">
        <ele>184.6</ele>
        <time>2014-05-13T08:50:23Z</time>
      </trkpt>
      <trkpt lat="48.72009" lon="-0.62343">
        <ele>184.2</ele>
        <time>2014-05-13T08:50:35Z</time>
      </trkpt>
      <trkpt lat="48.72034" lon="-0.62268">
        <ele>182</ele>
        <time>2014-05-13T08:50:45Z</time>
      </trkpt>
      <trkpt lat="48.7204" lon="-0.62239">
        <ele>181.2</ele>
        <time>2014-05-13T08:50:49Z</time>
      </trkpt>
      <trkpt lat="48.72046" lon="-0.62211">
        <ele>180.2</ele>
        <time>2014-05-13T08:50:53Z</time>
      </trkpt>
      <trkpt lat="48.72069" lon="-0.62144">
        <ele>179.6</ele>
        <time>2014-05-13T08:51:04Z</time>
      </trkpt>
      <trkpt lat="48.72079" lon="-0.62112">
        <ele>179.2</ele>
        <time>2014-05-13T08:51:09Z</time>
      </trkpt>
      <trkpt lat="48.72084" lon="-0.62089">
        <ele>179</ele>
        <time>2014-05-13T08:51:12Z</time>
      </trkpt>
      <trkpt lat="48.72101" lon="-0.6205">
        <ele>178.8</ele>
        <time>2014-05-13T08:51:21Z</time>
      </trkpt>
      <trkpt lat="48.7212" lon="-0.62037">
        <ele>177.4</ele>
        <time>2014-05-13T08:51:31Z</time>
      </trkpt>
      <trkpt lat="48.72126" lon="-0.62035">
        <ele>176.8</ele>
        <time>2014-05-13T08:51:37Z</time>
      </trkpt>
      <trkpt lat="48.72142" lon="-0.62025">
        <ele>176.4</ele>
        <time>2014-05-13T08:52:15Z</time>
      </trkpt>
      <trkpt lat="48.72167" lon="-0.62015">
        <ele>176.8</ele>
        <time>2014-05-13T08:52:23Z</time>
      </trkpt>
      <trkpt lat="48.72198" lon="-0.61985">
        <ele>179.8</ele>
        <time>2014-05-13T08:52:35Z</time>
      </trkpt>
      <trkpt lat="48.72212" lon="-0.61966">
        <ele>183</ele>
        <time>2014-05-13T08:52:42Z</time>
      </trkpt>
      <trkpt lat="48.72226" lon="-0.61938">
        <ele>186.4</ele>
        <time>2014-05-13T08:52:49Z</time>
      </trkpt>
      <trkpt lat="48.72246" lon="-0.61903">
        <ele>189.4</ele>
        <time>2014-05-13T08:52:55Z</time>
      </trkpt>
      <trkpt lat="48.72264" lon="-0.61866">
        <ele>192.8</ele>
        <time>2014-05-13T08:53:02Z</time>
      </trkpt>
      <trkpt lat="48.72287" lon="-0.61836">
        <ele>196</ele>
        <time>2014-05-13T08:53:10Z</time>
      </trkpt>
      <trkpt lat="48.72293" lon="-0.61822">
        <ele>196.6</ele>
        <time>2014-05-13T08:53:12Z</time>
      </trkpt>
      <trkpt lat="48.72297" lon="-0.61816">
        <ele>196.8</ele>
        <time>2014-05-13T08:53:13Z</time>
      </trkpt>
      <trkpt lat="48.72371" lon="-0.61708">
        <ele>197.6</ele>
        <time>2014-05-13T08:53:28Z</time>
      </trkpt>
      <trkpt lat="48.72443" lon="-0.61633">
        <ele>194</ele>
        <time>2014-05-13T08:53:38Z</time>
      </trkpt>
      <trkpt lat="48.72485" lon="-0.61595">
        <ele>190.8</ele>
        <time>2014-05-13T08:53:43Z</time>
      </trkpt>
      <trkpt lat="48.72502" lon="-0.61579">
        <ele>188.8</ele>
        <time>2014-05-13T08:53:45Z</time>
      </trkpt>
      <trkpt lat="48.72529" lon="-0.61554">
        <ele>187.6</ele>
        <time>2014-05-13T08:53:48Z</time>
      </trkpt>
      <trkpt lat="48.72574" lon="-0.61514">
        <ele>184.6</ele>
        <time>2014-05-13T08:53:53Z</time>
      </trkpt>
      <trkpt lat="48.7259" lon="-0.61499">
        <ele>184</ele>
        <time>2014-05-13T08:53:55Z</time>
      </trkpt>
      <trkpt lat="48.72674" lon="-0.6142">
        <ele>183.4</ele>
        <time>2014-05-13T08:54:07Z</time>
      </trkpt>
      <trkpt lat="48.72781" lon="-0.61287">
        <ele>181.6</ele>
        <time>2014-05-13T08:54:24Z</time>
      </trkpt>
      <trkpt lat="48.72863" lon="-0.6116">
        <ele>178.4</ele>
        <time>2014-05-13T08:54:36Z</time>
      </trkpt>
      <trkpt lat="48.72916" lon="-0.61083">
        <ele>174.6</ele>
        <time>2014-05-13T08:54:43Z</time>
      </trkpt>
      <trkpt lat="48.72998" lon="-0.60961">
        <ele>171.4</ele>
        <time>2014-05-13T08:54:55Z</time>
      </trkpt>
      <trkpt lat="48.73092" lon="-0.60795">
        <ele>168.8</ele>
        <time>2014-05-13T08:55:12Z</time>
      </trkpt>
      <trkpt lat="48.73168" lon="-0.60646">
        <ele>166.6</ele>
        <time>2014-05-13T08:55:28Z</time>
      </trkpt>
      <trkpt lat="48.7327" lon="-0.60464">
        <ele>165.2</ele>
        <time>2014-05-13T08:55:50Z</time>
      </trkpt>
      <trkpt lat="48.73363" lon="-0.60311">
        <ele>163.6</ele>
        <time>2014-05-13T08:56:11Z</time>
      </trkpt>
      <trkpt lat="48.73431" lon="-0.60146">
        <ele>163.2</ele>
        <time>2014-05-13T08:56:31Z</time>
      </trkpt>
      <trkpt lat="48.73501" lon="-0.60019">
        <ele>163.2</ele>
        <time>2014-05-13T08:56:48Z</time>
      </trkpt>
      <trkpt lat="48.73515" lon="-0.59999">
        <ele>163.2</ele>
        <time>2014-05-13T08:56:51Z</time>
      </trkpt>
      <trkpt lat="48.73599" lon="-0.59882">
        <ele>161.6</ele>
        <time>2014-05-13T08:57:08Z</time>
      </trkpt>
      <trkpt lat="48.73675" lon="-0.59758">
        <ele>160.4</ele>
        <time>2014-05-13T08:57:25Z</time>
      </trkpt>
      <trkpt lat="48.73765" lon="-0.5958">
        <ele>159.8</ele>
        <time>2014-05-13T08:57:48Z</time>
      </trkpt>
      <trkpt lat="48.73825" lon="-0.59428">
        <ele>159.4</ele>
        <time>2014-05-13T08:58:06Z</time>
      </trkpt>
      <trkpt lat="48.73879" lon="-0.59298">
        <ele>157.8</ele>
        <time>2014-05-13T08:58:21Z</time>
      </trkpt>
      <trkpt lat="48.73908" lon="-0.59237">
        <ele>157</ele>
        <time>2014-05-13T08:58:29Z</time>
      </trkpt>
      <trkpt lat="48.73913" lon="-0.5923">
        <ele>157</ele>
        <time>2014-05-13T08:58:30Z</time>
      </trkpt>
      <trkpt lat="48.73916" lon="-0.59222">
        <ele>157</ele>
        <time>2014-05-13T08:58:31Z</time>
      </trkpt>
      <trkpt lat="48.73966" lon="-0.59071">
        <ele>155.8</ele>
        <time>2014-05-13T08:58:48Z</time>
      </trkpt>
      <trkpt lat="48.74014" lon="-0.58852">
        <ele>153</ele>
        <time>2014-05-13T08:59:10Z</time>
      </trkpt>
      <trkpt lat="48.74019" lon="-0.58826">
        <ele>153</ele>
        <time>2014-05-13T08:59:13Z</time>
      </trkpt>
      <trkpt lat="48.74019" lon="-0.58819">
        <ele>152.8</ele>
        <time>2014-05-13T08:59:14Z</time>
      </trkpt>
      <trkpt lat="48.74018" lon="-0.58812">
        <ele>152.8</ele>
        <time>2014-05-13T08:59:15Z</time>
      </trkpt>
      <trkpt lat="48.74018" lon="-0.58805">
        <ele>152.8</ele>
        <time>2014-05-13T08:59:16Z</time>
      </trkpt>
      <trkpt lat="48.74018" lon="-0.58799">
        <ele>152.8</ele>
        <time>2014-05-13T08:59:17Z</time>
      </trkpt>
      <trkpt lat="48.7402" lon="-0.58792">
        <ele>152.8</ele>
        <time>2014-05-13T08:59:18Z</time>
      </trkpt>
      <trkpt lat="48.74024" lon="-0.58788">
        <ele>152.8</ele>
        <time>2014-05-13T08:59:19Z</time>
      </trkpt>
      <trkpt lat="48.74028" lon="-0.58784">
        <ele>152.8</ele>
        <time>2014-05-13T08:59:20Z</time>
      </trkpt>
      <trkpt lat="48.74034" lon="-0.58781">
        <ele>152.8</ele>
        <time>2014-05-13T08:59:21Z</time>
      </trkpt>
      <trkpt lat="48.74103" lon="-0.58696">
        <ele>153.6</ele>
        <time>2014-05-13T08:59:35Z</time>
      </trkpt>
      <trkpt lat="48.74199" lon="-0.58567">
        <ele>154.4</ele>
        <time>2014-05-13T08:59:55Z</time>
      </trkpt>
      <trkpt lat="48.74261" lon="-0.58452">
        <ele>154</ele>
        <time>2014-05-13T09:00:10Z</time>
      </trkpt>
      <trkpt lat="48.74335" lon="-0.58291">
        <ele>152</ele>
        <time>2014-05-13T09:00:28Z</time>
      </trkpt>
      <trkpt lat="48.74339" lon="-0.58282">
        <ele>151.8</ele>
        <time>2014-05-13T09:00:29Z</time>
      </trkpt>
      <trkpt lat="48.74405" lon="-0.58145">
        <ele>151.2</ele>
        <time>2014-05-13T09:00:45Z</time>
      </trkpt>
      <trkpt lat="48.74459" lon="-0.58032">
        <ele>150</ele>
        <time>2014-05-13T09:01:00Z</time>
      </trkpt>
      <trkpt lat="48.74481" lon="-0.57987">
        <ele>150</ele>
        <time>2014-05-13T09:01:08Z</time>
      </trkpt>
      <trkpt lat="48.74548" lon="-0.5781">
        <ele>149.4</ele>
        <time>2014-05-13T09:01:29Z</time>
      </trkpt>
      <trkpt lat="48.74561" lon="-0.57777">
        <ele>149.2</ele>
        <time>2014-05-13T09:01:33Z</time>
      </trkpt>
      <trkpt lat="48.74593" lon="-0.57687">
        <ele>149.6</ele>
        <time>2014-05-13T09:01:46Z</time>
      </trkpt>
      <trkpt lat="48.74645" lon="-0.57562">
        <ele>149.6</ele>
        <time>2014-05-13T09:02:01Z</time>
      </trkpt>
      <trkpt lat="48.74664" lon="-0.57512">
        <ele>148.4</ele>
        <time>2014-05-13T09:02:07Z</time>
      </trkpt>
      <trkpt lat="48.74667" lon="-0.57505">
        <ele>148.4</ele>
        <time>2014-05-13T09:02:08Z</time>
      </trkpt>
      <trkpt lat="48.74697" lon="-0.57438">
        <ele>147.4</ele>
        <time>2014-05-13T09:02:17Z</time>
      </trkpt>
      <trkpt lat="48.747" lon="-0.57431">
        <ele>147.4</ele>
        <time>2014-05-13T09:02:18Z</time>
      </trkpt>
      <trkpt lat="48.74704" lon="-0.57424">
        <ele>147.2</ele>
        <time>2014-05-13T09:02:19Z</time>
      </trkpt>
      <trkpt lat="48.74745" lon="-0.57316">
        <ele>144.2</ele>
        <time>2014-05-13T09:02:32Z</time>
      </trkpt>
      <trkpt lat="48.7478" lon="-0.5723">
        <ele>142.2</ele>
        <time>2014-05-13T09:02:44Z</time>
      </trkpt>
      <trkpt lat="48.7479" lon="-0.57202">
        <ele>142.2</ele>
        <time>2014-05-13T09:02:56Z</time>
      </trkpt>
    </trkseg>
  </trk>
</gpx>